<?xml version="1.0" encoding="UTF-8" standalone="no" ?>
<gpx xmlns="http://www.topografix.com/GPX/1/1" xmlns:xsi="http://www.w3.org/2001/XMLSchema-instance" xsi:schemaLocation="http://www.topografix.com/GPX/1/1 http://www.topografix.com/GPX/1/1/gpx.xsd" version="1.1" creator="VisuGPX - https://www.visugpx.com">
  <metadata>
    <name>24 CCC Flémalle - Oteppe - Flémalle</name>
    <desc><![CDATA[Randonnée au départ de l'Auto5 de Flémalle.
Flémalle - Mons-Lez-Liège - Cahottes - Velroux - Horion - Haneffe - Borlez - Vaux et Borset - Fumal - Oteppe - Huccorne - Moha - Wanze - Huy - Ampsin - Amay - Engis - Chokier - Flémalle.]]></desc>
  </metadata>
  <trk>
    <name><![CDATA[24 CCC]]></name>
    <extensions>
      <line xmlns="http://www.topografix.com/GPX/gpx_style/0/2">
        <color>0000FF</color>
        <width>4</width>
      </line>
    </extensions>
    <trkseg>
      <trkpt lat="50.60422" lon="5.48413">
        <ele>65</ele>
        <time>2018-11-06T20:36:53Z</time>
      </trkpt>
      <trkpt lat="50.60402" lon="5.48442">
        <ele>65</ele>
        <time>2018-11-06T20:37:53Z</time>
      </trkpt>
      <trkpt lat="50.6035" lon="5.48516">
        <ele>64</ele>
        <time>2018-11-06T20:38:53Z</time>
      </trkpt>
      <trkpt lat="50.60365" lon="5.4855">
        <ele>63</ele>
        <time>2018-11-06T20:39:53Z</time>
      </trkpt>
      <trkpt lat="50.60377" lon="5.48531">
        <ele>64</ele>
        <time>2018-11-06T20:40:53Z</time>
      </trkpt>
      <trkpt lat="50.60429" lon="5.48466">
        <ele>65</ele>
        <time>2018-11-06T20:41:53Z</time>
      </trkpt>
      <trkpt lat="50.60485" lon="5.48397">
        <ele>67</ele>
        <time>2018-11-06T20:42:53Z</time>
      </trkpt>
      <trkpt lat="50.60497" lon="5.48395">
        <ele>67</ele>
        <time>2018-11-06T20:43:53Z</time>
      </trkpt>
      <trkpt lat="50.60503" lon="5.48385">
        <ele>67</ele>
        <time>2018-11-06T20:44:53Z</time>
      </trkpt>
      <trkpt lat="50.60509" lon="5.4837">
        <ele>68</ele>
        <time>2018-11-06T20:45:53Z</time>
      </trkpt>
      <trkpt lat="50.60599" lon="5.48301">
        <ele>68</ele>
        <time>2018-11-06T20:46:53Z</time>
      </trkpt>
      <trkpt lat="50.60637" lon="5.48268">
        <ele>69</ele>
        <time>2018-11-06T20:47:53Z</time>
      </trkpt>
      <trkpt lat="50.60675" lon="5.48223">
        <ele>70</ele>
        <time>2018-11-06T20:48:53Z</time>
      </trkpt>
      <trkpt lat="50.60679" lon="5.48207">
        <ele>70</ele>
        <time>2018-11-06T20:49:53Z</time>
      </trkpt>
      <trkpt lat="50.60678" lon="5.4819">
        <ele>71</ele>
        <time>2018-11-06T20:50:53Z</time>
      </trkpt>
      <trkpt lat="50.60638" lon="5.48094">
        <ele>70</ele>
        <time>2018-11-06T20:51:53Z</time>
      </trkpt>
      <trkpt lat="50.60592" lon="5.47997">
        <ele>70</ele>
        <time>2018-11-06T20:52:53Z</time>
      </trkpt>
      <trkpt lat="50.60665" lon="5.47906">
        <ele>72</ele>
        <time>2018-11-06T20:53:53Z</time>
      </trkpt>
      <trkpt lat="50.607" lon="5.47895">
        <ele>75</ele>
        <time>2018-11-06T20:54:53Z</time>
      </trkpt>
      <trkpt lat="50.60734" lon="5.4788">
        <ele>77</ele>
        <time>2018-11-06T20:55:53Z</time>
      </trkpt>
      <trkpt lat="50.60825" lon="5.47839">
        <ele>80</ele>
        <time>2018-11-06T20:56:53Z</time>
      </trkpt>
      <trkpt lat="50.60847" lon="5.47821">
        <ele>81</ele>
        <time>2018-11-06T20:57:53Z</time>
      </trkpt>
      <trkpt lat="50.6087" lon="5.47798">
        <ele>83</ele>
        <time>2018-11-06T20:58:53Z</time>
      </trkpt>
      <trkpt lat="50.6089" lon="5.47789">
        <ele>83</ele>
        <time>2018-11-06T20:59:53Z</time>
      </trkpt>
      <trkpt lat="50.60901" lon="5.47787">
        <ele>84</ele>
        <time>2018-11-06T21:00:53Z</time>
      </trkpt>
      <trkpt lat="50.60924" lon="5.47794">
        <ele>85</ele>
        <time>2018-11-06T21:01:53Z</time>
      </trkpt>
      <trkpt lat="50.60945" lon="5.47811">
        <ele>86</ele>
        <time>2018-11-06T21:02:53Z</time>
      </trkpt>
      <trkpt lat="50.60983" lon="5.47861">
        <ele>89</ele>
        <time>2018-11-06T21:03:53Z</time>
      </trkpt>
      <trkpt lat="50.61035" lon="5.47897">
        <ele>93</ele>
        <time>2018-11-06T21:04:53Z</time>
      </trkpt>
      <trkpt lat="50.61048" lon="5.47903">
        <ele>94</ele>
        <time>2018-11-06T21:05:53Z</time>
      </trkpt>
      <trkpt lat="50.61079" lon="5.47911">
        <ele>96</ele>
        <time>2018-11-06T21:06:53Z</time>
      </trkpt>
      <trkpt lat="50.61172" lon="5.4789">
        <ele>97</ele>
        <time>2018-11-06T21:07:53Z</time>
      </trkpt>
      <trkpt lat="50.61193" lon="5.47894">
        <ele>96</ele>
        <time>2018-11-06T21:08:53Z</time>
      </trkpt>
      <trkpt lat="50.61263" lon="5.47923">
        <ele>93</ele>
        <time>2018-11-06T21:09:53Z</time>
      </trkpt>
      <trkpt lat="50.61319" lon="5.47953">
        <ele>92</ele>
        <time>2018-11-06T21:10:53Z</time>
      </trkpt>
      <trkpt lat="50.61357" lon="5.47976">
        <ele>92</ele>
        <time>2018-11-06T21:11:53Z</time>
      </trkpt>
      <trkpt lat="50.61433" lon="5.47991">
        <ele>94</ele>
        <time>2018-11-06T21:12:53Z</time>
      </trkpt>
      <trkpt lat="50.61444" lon="5.47989">
        <ele>95</ele>
        <time>2018-11-06T21:13:53Z</time>
      </trkpt>
      <trkpt lat="50.61456" lon="5.47972">
        <ele>95</ele>
        <time>2018-11-06T21:14:53Z</time>
      </trkpt>
      <trkpt lat="50.6147" lon="5.47935">
        <ele>96</ele>
        <time>2018-11-06T21:15:53Z</time>
      </trkpt>
      <trkpt lat="50.61479" lon="5.47904">
        <ele>96</ele>
        <time>2018-11-06T21:16:53Z</time>
      </trkpt>
      <trkpt lat="50.61485" lon="5.47804">
        <ele>97</ele>
        <time>2018-11-06T21:17:53Z</time>
      </trkpt>
      <trkpt lat="50.61492" lon="5.47769">
        <ele>97</ele>
        <time>2018-11-06T21:18:53Z</time>
      </trkpt>
      <trkpt lat="50.61509" lon="5.47728">
        <ele>98</ele>
        <time>2018-11-06T21:19:53Z</time>
      </trkpt>
      <trkpt lat="50.61541" lon="5.47675">
        <ele>99</ele>
        <time>2018-11-06T21:20:53Z</time>
      </trkpt>
      <trkpt lat="50.61563" lon="5.47628">
        <ele>100</ele>
        <time>2018-11-06T21:21:53Z</time>
      </trkpt>
      <trkpt lat="50.61559" lon="5.47594">
        <ele>101</ele>
        <time>2018-11-06T21:22:53Z</time>
      </trkpt>
      <trkpt lat="50.61506" lon="5.47392">
        <ele>109</ele>
        <time>2018-11-06T21:23:53Z</time>
      </trkpt>
      <trkpt lat="50.6149" lon="5.47306">
        <ele>111</ele>
        <time>2018-11-06T21:24:53Z</time>
      </trkpt>
      <trkpt lat="50.61486" lon="5.47283">
        <ele>112</ele>
        <time>2018-11-06T21:25:53Z</time>
      </trkpt>
      <trkpt lat="50.61477" lon="5.4727">
        <ele>113</ele>
        <time>2018-11-06T21:26:53Z</time>
      </trkpt>
      <trkpt lat="50.61483" lon="5.4725">
        <ele>113</ele>
        <time>2018-11-06T21:27:53Z</time>
      </trkpt>
      <trkpt lat="50.61545" lon="5.47218">
        <ele>115</ele>
        <time>2018-11-06T21:28:53Z</time>
      </trkpt>
      <trkpt lat="50.61559" lon="5.47198">
        <ele>117</ele>
        <time>2018-11-06T21:29:53Z</time>
      </trkpt>
      <trkpt lat="50.61566" lon="5.4717">
        <ele>118</ele>
        <time>2018-11-06T21:30:53Z</time>
      </trkpt>
      <trkpt lat="50.61579" lon="5.4696">
        <ele>128</ele>
        <time>2018-11-06T21:31:53Z</time>
      </trkpt>
      <trkpt lat="50.61581" lon="5.46894">
        <ele>129</ele>
        <time>2018-11-06T21:32:53Z</time>
      </trkpt>
      <trkpt lat="50.61575" lon="5.46854">
        <ele>129</ele>
        <time>2018-11-06T21:33:53Z</time>
      </trkpt>
      <trkpt lat="50.61533" lon="5.46692">
        <ele>136</ele>
        <time>2018-11-06T21:34:53Z</time>
      </trkpt>
      <trkpt lat="50.61505" lon="5.46582">
        <ele>140</ele>
        <time>2018-11-06T21:35:53Z</time>
      </trkpt>
      <trkpt lat="50.61502" lon="5.46547">
        <ele>142</ele>
        <time>2018-11-06T21:36:53Z</time>
      </trkpt>
      <trkpt lat="50.6151" lon="5.46522">
        <ele>143</ele>
        <time>2018-11-06T21:37:53Z</time>
      </trkpt>
      <trkpt lat="50.61549" lon="5.46428">
        <ele>147</ele>
        <time>2018-11-06T21:38:53Z</time>
      </trkpt>
      <trkpt lat="50.61617" lon="5.46263">
        <ele>152</ele>
        <time>2018-11-06T21:39:53Z</time>
      </trkpt>
      <trkpt lat="50.6163" lon="5.46245">
        <ele>153</ele>
        <time>2018-11-06T21:40:53Z</time>
      </trkpt>
      <trkpt lat="50.61643" lon="5.46232">
        <ele>154</ele>
        <time>2018-11-06T21:41:53Z</time>
      </trkpt>
      <trkpt lat="50.61665" lon="5.46231">
        <ele>157</ele>
        <time>2018-11-06T21:42:53Z</time>
      </trkpt>
      <trkpt lat="50.61727" lon="5.46246">
        <ele>163</ele>
        <time>2018-11-06T21:43:53Z</time>
      </trkpt>
      <trkpt lat="50.61744" lon="5.46242">
        <ele>164</ele>
        <time>2018-11-06T21:44:53Z</time>
      </trkpt>
      <trkpt lat="50.61763" lon="5.46226">
        <ele>166</ele>
        <time>2018-11-06T21:45:53Z</time>
      </trkpt>
      <trkpt lat="50.61829" lon="5.46158">
        <ele>169</ele>
        <time>2018-11-06T21:46:53Z</time>
      </trkpt>
      <trkpt lat="50.61844" lon="5.4615">
        <ele>170</ele>
        <time>2018-11-06T21:47:53Z</time>
      </trkpt>
      <trkpt lat="50.61853" lon="5.46159">
        <ele>170</ele>
        <time>2018-11-06T21:48:53Z</time>
      </trkpt>
      <trkpt lat="50.61867" lon="5.46146">
        <ele>171</ele>
        <time>2018-11-06T21:49:53Z</time>
      </trkpt>
      <trkpt lat="50.61883" lon="5.46148">
        <ele>172</ele>
        <time>2018-11-06T21:50:53Z</time>
      </trkpt>
      <trkpt lat="50.62047" lon="5.46066">
        <ele>181</ele>
        <time>2018-11-06T21:51:53Z</time>
      </trkpt>
      <trkpt lat="50.62105" lon="5.46036">
        <ele>182</ele>
        <time>2018-11-06T21:52:53Z</time>
      </trkpt>
      <trkpt lat="50.62124" lon="5.46017">
        <ele>181</ele>
        <time>2018-11-06T21:53:53Z</time>
      </trkpt>
      <trkpt lat="50.62149" lon="5.46007">
        <ele>181</ele>
        <time>2018-11-06T21:54:53Z</time>
      </trkpt>
      <trkpt lat="50.62233" lon="5.45991">
        <ele>181</ele>
        <time>2018-11-06T21:55:53Z</time>
      </trkpt>
      <trkpt lat="50.62255" lon="5.45982">
        <ele>181</ele>
        <time>2018-11-06T21:56:53Z</time>
      </trkpt>
      <trkpt lat="50.62279" lon="5.45968">
        <ele>181</ele>
        <time>2018-11-06T21:57:53Z</time>
      </trkpt>
      <trkpt lat="50.62373" lon="5.45916">
        <ele>180</ele>
        <time>2018-11-06T21:58:53Z</time>
      </trkpt>
      <trkpt lat="50.62412" lon="5.45896">
        <ele>179</ele>
        <time>2018-11-06T21:59:53Z</time>
      </trkpt>
      <trkpt lat="50.6245" lon="5.4588">
        <ele>179</ele>
        <time>2018-11-06T22:00:53Z</time>
      </trkpt>
      <trkpt lat="50.62464" lon="5.45871">
        <ele>179</ele>
        <time>2018-11-06T22:01:53Z</time>
      </trkpt>
      <trkpt lat="50.62498" lon="5.45835">
        <ele>180</ele>
        <time>2018-11-06T22:02:53Z</time>
      </trkpt>
      <trkpt lat="50.62482" lon="5.45802">
        <ele>181</ele>
        <time>2018-11-06T22:03:53Z</time>
      </trkpt>
      <trkpt lat="50.62451" lon="5.45775">
        <ele>183</ele>
        <time>2018-11-06T22:04:53Z</time>
      </trkpt>
      <trkpt lat="50.62409" lon="5.45708">
        <ele>184</ele>
        <time>2018-11-06T22:05:53Z</time>
      </trkpt>
      <trkpt lat="50.62337" lon="5.45592">
        <ele>184</ele>
        <time>2018-11-06T22:06:53Z</time>
      </trkpt>
      <trkpt lat="50.62336" lon="5.45563">
        <ele>184</ele>
        <time>2018-11-06T22:07:53Z</time>
      </trkpt>
      <trkpt lat="50.62324" lon="5.4529">
        <ele>187</ele>
        <time>2018-11-06T22:08:53Z</time>
      </trkpt>
      <trkpt lat="50.62315" lon="5.45018">
        <ele>187</ele>
        <time>2018-11-06T22:09:53Z</time>
      </trkpt>
      <trkpt lat="50.62322" lon="5.44885">
        <ele>188</ele>
        <time>2018-11-06T22:10:53Z</time>
      </trkpt>
      <trkpt lat="50.62339" lon="5.44709">
        <ele>189</ele>
        <time>2018-11-06T22:11:53Z</time>
      </trkpt>
      <trkpt lat="50.62351" lon="5.44607">
        <ele>189</ele>
        <time>2018-11-06T22:12:53Z</time>
      </trkpt>
      <trkpt lat="50.62353" lon="5.44521">
        <ele>187</ele>
        <time>2018-11-06T22:13:53Z</time>
      </trkpt>
      <trkpt lat="50.62348" lon="5.44429">
        <ele>185</ele>
        <time>2018-11-06T22:14:53Z</time>
      </trkpt>
      <trkpt lat="50.62337" lon="5.44343">
        <ele>186</ele>
        <time>2018-11-06T22:15:53Z</time>
      </trkpt>
      <trkpt lat="50.62324" lon="5.44274">
        <ele>187</ele>
        <time>2018-11-06T22:16:53Z</time>
      </trkpt>
      <trkpt lat="50.62311" lon="5.44224">
        <ele>186</ele>
        <time>2018-11-06T22:17:53Z</time>
      </trkpt>
      <trkpt lat="50.62303" lon="5.44184">
        <ele>186</ele>
        <time>2018-11-06T22:18:53Z</time>
      </trkpt>
      <trkpt lat="50.62304" lon="5.44148">
        <ele>186</ele>
        <time>2018-11-06T22:19:53Z</time>
      </trkpt>
      <trkpt lat="50.62309" lon="5.4412">
        <ele>185</ele>
        <time>2018-11-06T22:20:53Z</time>
      </trkpt>
      <trkpt lat="50.62368" lon="5.44013">
        <ele>186</ele>
        <time>2018-11-06T22:21:53Z</time>
      </trkpt>
      <trkpt lat="50.62372" lon="5.43984">
        <ele>186</ele>
        <time>2018-11-06T22:22:53Z</time>
      </trkpt>
      <trkpt lat="50.62344" lon="5.43846">
        <ele>183</ele>
        <time>2018-11-06T22:23:53Z</time>
      </trkpt>
      <trkpt lat="50.62329" lon="5.4378">
        <ele>183</ele>
        <time>2018-11-06T22:24:53Z</time>
      </trkpt>
      <trkpt lat="50.62298" lon="5.43694">
        <ele>184</ele>
        <time>2018-11-06T22:25:53Z</time>
      </trkpt>
      <trkpt lat="50.62274" lon="5.43629">
        <ele>186</ele>
        <time>2018-11-06T22:26:53Z</time>
      </trkpt>
      <trkpt lat="50.6225" lon="5.43571">
        <ele>188</ele>
        <time>2018-11-06T22:27:53Z</time>
      </trkpt>
      <trkpt lat="50.6223" lon="5.4352">
        <ele>189</ele>
        <time>2018-11-06T22:28:53Z</time>
      </trkpt>
      <trkpt lat="50.62232" lon="5.43486">
        <ele>190</ele>
        <time>2018-11-06T22:29:53Z</time>
      </trkpt>
      <trkpt lat="50.62221" lon="5.43467">
        <ele>190</ele>
        <time>2018-11-06T22:30:53Z</time>
      </trkpt>
      <trkpt lat="50.62207" lon="5.4346">
        <ele>189</ele>
        <time>2018-11-06T22:31:53Z</time>
      </trkpt>
      <trkpt lat="50.62186" lon="5.43403">
        <ele>190</ele>
        <time>2018-11-06T22:32:53Z</time>
      </trkpt>
      <trkpt lat="50.62151" lon="5.43309">
        <ele>193</ele>
        <time>2018-11-06T22:33:53Z</time>
      </trkpt>
      <trkpt lat="50.62104" lon="5.43255">
        <ele>191</ele>
        <time>2018-11-06T22:34:53Z</time>
      </trkpt>
      <trkpt lat="50.62061" lon="5.43207">
        <ele>191</ele>
        <time>2018-11-06T22:35:53Z</time>
      </trkpt>
      <trkpt lat="50.62029" lon="5.4318">
        <ele>191</ele>
        <time>2018-11-06T22:36:53Z</time>
      </trkpt>
      <trkpt lat="50.61988" lon="5.43157">
        <ele>191</ele>
        <time>2018-11-06T22:37:53Z</time>
      </trkpt>
      <trkpt lat="50.61955" lon="5.43127">
        <ele>190</ele>
        <time>2018-11-06T22:38:53Z</time>
      </trkpt>
      <trkpt lat="50.6189" lon="5.43036">
        <ele>190</ele>
        <time>2018-11-06T22:39:53Z</time>
      </trkpt>
      <trkpt lat="50.61834" lon="5.42957">
        <ele>191</ele>
        <time>2018-11-06T22:40:53Z</time>
      </trkpt>
      <trkpt lat="50.61796" lon="5.4292">
        <ele>189</ele>
        <time>2018-11-06T22:41:53Z</time>
      </trkpt>
      <trkpt lat="50.61774" lon="5.42893">
        <ele>187</ele>
        <time>2018-11-06T22:42:53Z</time>
      </trkpt>
      <trkpt lat="50.61767" lon="5.42871">
        <ele>186</ele>
        <time>2018-11-06T22:43:53Z</time>
      </trkpt>
      <trkpt lat="50.6177" lon="5.42844">
        <ele>186</ele>
        <time>2018-11-06T22:44:53Z</time>
      </trkpt>
      <trkpt lat="50.61794" lon="5.4278">
        <ele>185</ele>
        <time>2018-11-06T22:45:53Z</time>
      </trkpt>
      <trkpt lat="50.61801" lon="5.42747">
        <ele>184</ele>
        <time>2018-11-06T22:46:53Z</time>
      </trkpt>
      <trkpt lat="50.61812" lon="5.42706">
        <ele>186</ele>
        <time>2018-11-06T22:47:53Z</time>
      </trkpt>
      <trkpt lat="50.61818" lon="5.42667">
        <ele>188</ele>
        <time>2018-11-06T22:48:53Z</time>
      </trkpt>
      <trkpt lat="50.61818" lon="5.42628">
        <ele>189</ele>
        <time>2018-11-06T22:49:53Z</time>
      </trkpt>
      <trkpt lat="50.61807" lon="5.42564">
        <ele>190</ele>
        <time>2018-11-06T22:50:53Z</time>
      </trkpt>
      <trkpt lat="50.61808" lon="5.42545">
        <ele>190</ele>
        <time>2018-11-06T22:51:53Z</time>
      </trkpt>
      <trkpt lat="50.6181" lon="5.42513">
        <ele>191</ele>
        <time>2018-11-06T22:52:53Z</time>
      </trkpt>
      <trkpt lat="50.61816" lon="5.42484">
        <ele>191</ele>
        <time>2018-11-06T22:53:53Z</time>
      </trkpt>
      <trkpt lat="50.61825" lon="5.42451">
        <ele>191</ele>
        <time>2018-11-06T22:54:53Z</time>
      </trkpt>
      <trkpt lat="50.61863" lon="5.42368">
        <ele>189</ele>
        <time>2018-11-06T22:55:53Z</time>
      </trkpt>
      <trkpt lat="50.61901" lon="5.42278">
        <ele>188</ele>
        <time>2018-11-06T22:56:53Z</time>
      </trkpt>
      <trkpt lat="50.61905" lon="5.42248">
        <ele>189</ele>
        <time>2018-11-06T22:57:53Z</time>
      </trkpt>
      <trkpt lat="50.61902" lon="5.42135">
        <ele>186</ele>
        <time>2018-11-06T22:58:53Z</time>
      </trkpt>
      <trkpt lat="50.61887" lon="5.41966">
        <ele>186</ele>
        <time>2018-11-06T22:59:53Z</time>
      </trkpt>
      <trkpt lat="50.61892" lon="5.41885">
        <ele>187</ele>
        <time>2018-11-06T23:00:53Z</time>
      </trkpt>
      <trkpt lat="50.619" lon="5.41767">
        <ele>187</ele>
        <time>2018-11-06T23:01:53Z</time>
      </trkpt>
      <trkpt lat="50.61906" lon="5.41732">
        <ele>187</ele>
        <time>2018-11-06T23:02:53Z</time>
      </trkpt>
      <trkpt lat="50.6192" lon="5.41689">
        <ele>187</ele>
        <time>2018-11-06T23:03:53Z</time>
      </trkpt>
      <trkpt lat="50.61941" lon="5.41659">
        <ele>186</ele>
        <time>2018-11-06T23:04:53Z</time>
      </trkpt>
      <trkpt lat="50.6198" lon="5.41609">
        <ele>184</ele>
        <time>2018-11-06T23:05:53Z</time>
      </trkpt>
      <trkpt lat="50.62088" lon="5.4147">
        <ele>183</ele>
        <time>2018-11-06T23:06:53Z</time>
      </trkpt>
      <trkpt lat="50.62181" lon="5.41351">
        <ele>181</ele>
        <time>2018-11-06T23:07:53Z</time>
      </trkpt>
      <trkpt lat="50.62291" lon="5.41208">
        <ele>175</ele>
        <time>2018-11-06T23:08:53Z</time>
      </trkpt>
      <trkpt lat="50.6239" lon="5.41079">
        <ele>172</ele>
        <time>2018-11-06T23:09:53Z</time>
      </trkpt>
      <trkpt lat="50.62438" lon="5.41016">
        <ele>169</ele>
        <time>2018-11-06T23:10:53Z</time>
      </trkpt>
      <trkpt lat="50.62541" lon="5.40883">
        <ele>166</ele>
        <time>2018-11-06T23:11:53Z</time>
      </trkpt>
      <trkpt lat="50.62644" lon="5.40748">
        <ele>162</ele>
        <time>2018-11-06T23:12:53Z</time>
      </trkpt>
      <trkpt lat="50.62732" lon="5.40633">
        <ele>158</ele>
        <time>2018-11-06T23:13:53Z</time>
      </trkpt>
      <trkpt lat="50.62761" lon="5.40593">
        <ele>157</ele>
        <time>2018-11-06T23:14:53Z</time>
      </trkpt>
      <trkpt lat="50.62809" lon="5.40532">
        <ele>155</ele>
        <time>2018-11-06T23:15:53Z</time>
      </trkpt>
      <trkpt lat="50.62913" lon="5.40397">
        <ele>164</ele>
        <time>2018-11-06T23:16:53Z</time>
      </trkpt>
      <trkpt lat="50.63013" lon="5.40267">
        <ele>159</ele>
        <time>2018-11-06T23:17:53Z</time>
      </trkpt>
      <trkpt lat="50.63108" lon="5.40146">
        <ele>159</ele>
        <time>2018-11-06T23:18:53Z</time>
      </trkpt>
      <trkpt lat="50.6322" lon="5.39999">
        <ele>161</ele>
        <time>2018-11-06T23:19:53Z</time>
      </trkpt>
      <trkpt lat="50.63325" lon="5.39863">
        <ele>164</ele>
        <time>2018-11-06T23:20:53Z</time>
      </trkpt>
      <trkpt lat="50.63382" lon="5.39788">
        <ele>164</ele>
        <time>2018-11-06T23:21:53Z</time>
      </trkpt>
      <trkpt lat="50.63476" lon="5.39666">
        <ele>167</ele>
        <time>2018-11-06T23:22:53Z</time>
      </trkpt>
      <trkpt lat="50.63506" lon="5.39628">
        <ele>166</ele>
        <time>2018-11-06T23:23:53Z</time>
      </trkpt>
      <trkpt lat="50.6352" lon="5.39632">
        <ele>166</ele>
        <time>2018-11-06T23:24:53Z</time>
      </trkpt>
      <trkpt lat="50.63523" lon="5.39616">
        <ele>166</ele>
        <time>2018-11-06T23:25:53Z</time>
      </trkpt>
      <trkpt lat="50.6352" lon="5.39605">
        <ele>165</ele>
        <time>2018-11-06T23:26:53Z</time>
      </trkpt>
      <trkpt lat="50.63515" lon="5.3959">
        <ele>165</ele>
        <time>2018-11-06T23:27:53Z</time>
      </trkpt>
      <trkpt lat="50.63501" lon="5.39412">
        <ele>162</ele>
        <time>2018-11-06T23:28:53Z</time>
      </trkpt>
      <trkpt lat="50.63493" lon="5.39321">
        <ele>162</ele>
        <time>2018-11-06T23:29:53Z</time>
      </trkpt>
      <trkpt lat="50.63479" lon="5.39149">
        <ele>162</ele>
        <time>2018-11-06T23:30:53Z</time>
      </trkpt>
      <trkpt lat="50.63464" lon="5.38968">
        <ele>163</ele>
        <time>2018-11-06T23:31:53Z</time>
      </trkpt>
      <trkpt lat="50.63438" lon="5.3863">
        <ele>162</ele>
        <time>2018-11-06T23:32:53Z</time>
      </trkpt>
      <trkpt lat="50.63414" lon="5.38319">
        <ele>165</ele>
        <time>2018-11-06T23:33:53Z</time>
      </trkpt>
      <trkpt lat="50.634" lon="5.38137">
        <ele>167</ele>
        <time>2018-11-06T23:34:53Z</time>
      </trkpt>
      <trkpt lat="50.63392" lon="5.38025">
        <ele>169</ele>
        <time>2018-11-06T23:35:53Z</time>
      </trkpt>
      <trkpt lat="50.63375" lon="5.37784">
        <ele>170</ele>
        <time>2018-11-06T23:36:53Z</time>
      </trkpt>
      <trkpt lat="50.63369" lon="5.37705">
        <ele>172</ele>
        <time>2018-11-06T23:37:53Z</time>
      </trkpt>
      <trkpt lat="50.63333" lon="5.37251">
        <ele>177</ele>
        <time>2018-11-06T23:38:53Z</time>
      </trkpt>
      <trkpt lat="50.63307" lon="5.36941">
        <ele>176</ele>
        <time>2018-11-06T23:39:53Z</time>
      </trkpt>
      <trkpt lat="50.63295" lon="5.3678">
        <ele>176</ele>
        <time>2018-11-06T23:40:53Z</time>
      </trkpt>
      <trkpt lat="50.63294" lon="5.36479">
        <ele>179</ele>
        <time>2018-11-06T23:41:53Z</time>
      </trkpt>
      <trkpt lat="50.63294" lon="5.3634">
        <ele>179</ele>
        <time>2018-11-06T23:42:53Z</time>
      </trkpt>
      <trkpt lat="50.63262" lon="5.36074">
        <ele>178</ele>
        <time>2018-11-06T23:43:53Z</time>
      </trkpt>
      <trkpt lat="50.63262" lon="5.36038">
        <ele>178</ele>
        <time>2018-11-06T23:44:53Z</time>
      </trkpt>
      <trkpt lat="50.63282" lon="5.35838">
        <ele>176</ele>
        <time>2018-11-06T23:45:53Z</time>
      </trkpt>
      <trkpt lat="50.63316" lon="5.35525">
        <ele>172</ele>
        <time>2018-11-06T23:46:53Z</time>
      </trkpt>
      <trkpt lat="50.63323" lon="5.35414">
        <ele>170</ele>
        <time>2018-11-06T23:47:53Z</time>
      </trkpt>
      <trkpt lat="50.63326" lon="5.3527">
        <ele>171</ele>
        <time>2018-11-06T23:48:53Z</time>
      </trkpt>
      <trkpt lat="50.63332" lon="5.35127">
        <ele>173</ele>
        <time>2018-11-06T23:49:53Z</time>
      </trkpt>
      <trkpt lat="50.63345" lon="5.34945">
        <ele>175</ele>
        <time>2018-11-06T23:50:53Z</time>
      </trkpt>
      <trkpt lat="50.63353" lon="5.34843">
        <ele>177</ele>
        <time>2018-11-06T23:51:53Z</time>
      </trkpt>
      <trkpt lat="50.6341" lon="5.34535">
        <ele>172</ele>
        <time>2018-11-06T23:52:53Z</time>
      </trkpt>
      <trkpt lat="50.63465" lon="5.34215">
        <ele>175</ele>
        <time>2018-11-06T23:53:53Z</time>
      </trkpt>
      <trkpt lat="50.6348" lon="5.34128">
        <ele>175</ele>
        <time>2018-11-06T23:54:53Z</time>
      </trkpt>
      <trkpt lat="50.63482" lon="5.33903">
        <ele>172</ele>
        <time>2018-11-06T23:55:53Z</time>
      </trkpt>
      <trkpt lat="50.63484" lon="5.33726">
        <ele>173</ele>
        <time>2018-11-06T23:56:53Z</time>
      </trkpt>
      <trkpt lat="50.6349" lon="5.33631">
        <ele>172</ele>
        <time>2018-11-06T23:57:53Z</time>
      </trkpt>
      <trkpt lat="50.63501" lon="5.33547">
        <ele>171</ele>
        <time>2018-11-06T23:58:53Z</time>
      </trkpt>
      <trkpt lat="50.63512" lon="5.33497">
        <ele>170</ele>
        <time>2018-11-06T23:59:53Z</time>
      </trkpt>
      <trkpt lat="50.63525" lon="5.33408">
        <ele>170</ele>
        <time>2018-11-07T00:00:53Z</time>
      </trkpt>
      <trkpt lat="50.63526" lon="5.33342">
        <ele>170</ele>
        <time>2018-11-07T00:01:53Z</time>
      </trkpt>
      <trkpt lat="50.63508" lon="5.33174">
        <ele>167</ele>
        <time>2018-11-07T00:02:53Z</time>
      </trkpt>
      <trkpt lat="50.63495" lon="5.33097">
        <ele>167</ele>
        <time>2018-11-07T00:03:53Z</time>
      </trkpt>
      <trkpt lat="50.63472" lon="5.33">
        <ele>166</ele>
        <time>2018-11-07T00:04:53Z</time>
      </trkpt>
      <trkpt lat="50.63454" lon="5.32893">
        <ele>165</ele>
        <time>2018-11-07T00:05:53Z</time>
      </trkpt>
      <trkpt lat="50.6345" lon="5.32861">
        <ele>165</ele>
        <time>2018-11-07T00:06:53Z</time>
      </trkpt>
      <trkpt lat="50.63418" lon="5.3262">
        <ele>161</ele>
        <time>2018-11-07T00:07:53Z</time>
      </trkpt>
      <trkpt lat="50.6341" lon="5.3256">
        <ele>159</ele>
        <time>2018-11-07T00:08:53Z</time>
      </trkpt>
      <trkpt lat="50.63405" lon="5.32496">
        <ele>155</ele>
        <time>2018-11-07T00:09:53Z</time>
      </trkpt>
      <trkpt lat="50.63412" lon="5.32482">
        <ele>155</ele>
        <time>2018-11-07T00:10:53Z</time>
      </trkpt>
      <trkpt lat="50.63437" lon="5.32472">
        <ele>155</ele>
        <time>2018-11-07T00:11:53Z</time>
      </trkpt>
      <trkpt lat="50.63449" lon="5.32461">
        <ele>154</ele>
        <time>2018-11-07T00:12:53Z</time>
      </trkpt>
      <trkpt lat="50.63466" lon="5.32419">
        <ele>153</ele>
        <time>2018-11-07T00:13:53Z</time>
      </trkpt>
      <trkpt lat="50.63478" lon="5.32386">
        <ele>151</ele>
        <time>2018-11-07T00:14:53Z</time>
      </trkpt>
      <trkpt lat="50.63487" lon="5.32362">
        <ele>149</ele>
        <time>2018-11-07T00:15:53Z</time>
      </trkpt>
      <trkpt lat="50.63502" lon="5.32317">
        <ele>147</ele>
        <time>2018-11-07T00:16:53Z</time>
      </trkpt>
      <trkpt lat="50.63524" lon="5.32257">
        <ele>146</ele>
        <time>2018-11-07T00:17:53Z</time>
      </trkpt>
      <trkpt lat="50.63536" lon="5.3222">
        <ele>146</ele>
        <time>2018-11-07T00:18:53Z</time>
      </trkpt>
      <trkpt lat="50.63621" lon="5.3221">
        <ele>144</ele>
        <time>2018-11-07T00:19:53Z</time>
      </trkpt>
      <trkpt lat="50.63654" lon="5.32193">
        <ele>144</ele>
        <time>2018-11-07T00:20:53Z</time>
      </trkpt>
      <trkpt lat="50.63686" lon="5.32162">
        <ele>143</ele>
        <time>2018-11-07T00:21:53Z</time>
      </trkpt>
      <trkpt lat="50.63766" lon="5.32068">
        <ele>145</ele>
        <time>2018-11-07T00:22:53Z</time>
      </trkpt>
      <trkpt lat="50.63803" lon="5.32025">
        <ele>146</ele>
        <time>2018-11-07T00:23:53Z</time>
      </trkpt>
      <trkpt lat="50.63832" lon="5.32004">
        <ele>146</ele>
        <time>2018-11-07T00:24:53Z</time>
      </trkpt>
      <trkpt lat="50.63844" lon="5.31999">
        <ele>146</ele>
        <time>2018-11-07T00:25:53Z</time>
      </trkpt>
      <trkpt lat="50.63865" lon="5.31962">
        <ele>146</ele>
        <time>2018-11-07T00:26:53Z</time>
      </trkpt>
      <trkpt lat="50.63956" lon="5.31803">
        <ele>148</ele>
        <time>2018-11-07T00:27:53Z</time>
      </trkpt>
      <trkpt lat="50.63992" lon="5.31736">
        <ele>147</ele>
        <time>2018-11-07T00:28:53Z</time>
      </trkpt>
      <trkpt lat="50.64001" lon="5.31685">
        <ele>147</ele>
        <time>2018-11-07T00:29:53Z</time>
      </trkpt>
      <trkpt lat="50.64001" lon="5.31557">
        <ele>149</ele>
        <time>2018-11-07T00:30:53Z</time>
      </trkpt>
      <trkpt lat="50.64011" lon="5.31476">
        <ele>150</ele>
        <time>2018-11-07T00:31:53Z</time>
      </trkpt>
      <trkpt lat="50.64033" lon="5.31377">
        <ele>153</ele>
        <time>2018-11-07T00:32:53Z</time>
      </trkpt>
      <trkpt lat="50.64068" lon="5.31216">
        <ele>158</ele>
        <time>2018-11-07T00:33:53Z</time>
      </trkpt>
      <trkpt lat="50.6413" lon="5.30963">
        <ele>162</ele>
        <time>2018-11-07T00:34:53Z</time>
      </trkpt>
      <trkpt lat="50.64151" lon="5.30863">
        <ele>163</ele>
        <time>2018-11-07T00:35:53Z</time>
      </trkpt>
      <trkpt lat="50.64158" lon="5.30748">
        <ele>161</ele>
        <time>2018-11-07T00:36:53Z</time>
      </trkpt>
      <trkpt lat="50.64177" lon="5.30456">
        <ele>155</ele>
        <time>2018-11-07T00:37:53Z</time>
      </trkpt>
      <trkpt lat="50.64184" lon="5.30374">
        <ele>155</ele>
        <time>2018-11-07T00:38:53Z</time>
      </trkpt>
      <trkpt lat="50.64208" lon="5.30191">
        <ele>155</ele>
        <time>2018-11-07T00:39:53Z</time>
      </trkpt>
      <trkpt lat="50.64235" lon="5.30054">
        <ele>158</ele>
        <time>2018-11-07T00:40:53Z</time>
      </trkpt>
      <trkpt lat="50.64257" lon="5.2993">
        <ele>159</ele>
        <time>2018-11-07T00:41:53Z</time>
      </trkpt>
      <trkpt lat="50.64334" lon="5.29735">
        <ele>158</ele>
        <time>2018-11-07T00:42:53Z</time>
      </trkpt>
      <trkpt lat="50.64417" lon="5.29525">
        <ele>160</ele>
        <time>2018-11-07T00:43:53Z</time>
      </trkpt>
      <trkpt lat="50.64493" lon="5.29329">
        <ele>159</ele>
        <time>2018-11-07T00:44:53Z</time>
      </trkpt>
      <trkpt lat="50.6452" lon="5.29259">
        <ele>158</ele>
        <time>2018-11-07T00:45:53Z</time>
      </trkpt>
      <trkpt lat="50.64574" lon="5.29103">
        <ele>159</ele>
        <time>2018-11-07T00:46:53Z</time>
      </trkpt>
      <trkpt lat="50.64581" lon="5.2906">
        <ele>159</ele>
        <time>2018-11-07T00:47:53Z</time>
      </trkpt>
      <trkpt lat="50.64584" lon="5.28984">
        <ele>158</ele>
        <time>2018-11-07T00:48:53Z</time>
      </trkpt>
      <trkpt lat="50.64597" lon="5.28709">
        <ele>153</ele>
        <time>2018-11-07T00:49:53Z</time>
      </trkpt>
      <trkpt lat="50.64604" lon="5.28594">
        <ele>150</ele>
        <time>2018-11-07T00:50:53Z</time>
      </trkpt>
      <trkpt lat="50.64604" lon="5.28513">
        <ele>149</ele>
        <time>2018-11-07T00:51:53Z</time>
      </trkpt>
      <trkpt lat="50.64597" lon="5.28447">
        <ele>149</ele>
        <time>2018-11-07T00:52:53Z</time>
      </trkpt>
      <trkpt lat="50.64588" lon="5.28398">
        <ele>149</ele>
        <time>2018-11-07T00:53:53Z</time>
      </trkpt>
      <trkpt lat="50.64523" lon="5.28155">
        <ele>153</ele>
        <time>2018-11-07T00:54:53Z</time>
      </trkpt>
      <trkpt lat="50.64458" lon="5.27907">
        <ele>155</ele>
        <time>2018-11-07T00:55:53Z</time>
      </trkpt>
      <trkpt lat="50.64442" lon="5.27852">
        <ele>155</ele>
        <time>2018-11-07T00:56:53Z</time>
      </trkpt>
      <trkpt lat="50.64422" lon="5.27793">
        <ele>155</ele>
        <time>2018-11-07T00:57:53Z</time>
      </trkpt>
      <trkpt lat="50.64317" lon="5.2754">
        <ele>156</ele>
        <time>2018-11-07T00:58:53Z</time>
      </trkpt>
      <trkpt lat="50.64256" lon="5.27394">
        <ele>158</ele>
        <time>2018-11-07T00:59:53Z</time>
      </trkpt>
      <trkpt lat="50.64227" lon="5.27334">
        <ele>159</ele>
        <time>2018-11-07T01:00:53Z</time>
      </trkpt>
      <trkpt lat="50.64204" lon="5.27261">
        <ele>160</ele>
        <time>2018-11-07T01:01:53Z</time>
      </trkpt>
      <trkpt lat="50.64182" lon="5.27133">
        <ele>160</ele>
        <time>2018-11-07T01:02:53Z</time>
      </trkpt>
      <trkpt lat="50.64175" lon="5.271">
        <ele>160</ele>
        <time>2018-11-07T01:03:53Z</time>
      </trkpt>
      <trkpt lat="50.64153" lon="5.27005">
        <ele>159</ele>
        <time>2018-11-07T01:04:53Z</time>
      </trkpt>
      <trkpt lat="50.64141" lon="5.26937">
        <ele>158</ele>
        <time>2018-11-07T01:05:53Z</time>
      </trkpt>
      <trkpt lat="50.64148" lon="5.2691">
        <ele>158</ele>
        <time>2018-11-07T01:06:53Z</time>
      </trkpt>
      <trkpt lat="50.64145" lon="5.26884">
        <ele>157</ele>
        <time>2018-11-07T01:07:53Z</time>
      </trkpt>
      <trkpt lat="50.64128" lon="5.26863">
        <ele>157</ele>
        <time>2018-11-07T01:08:53Z</time>
      </trkpt>
      <trkpt lat="50.6411" lon="5.26776">
        <ele>155</ele>
        <time>2018-11-07T01:09:53Z</time>
      </trkpt>
      <trkpt lat="50.64102" lon="5.26715">
        <ele>154</ele>
        <time>2018-11-07T01:10:53Z</time>
      </trkpt>
      <trkpt lat="50.641" lon="5.26662">
        <ele>154</ele>
        <time>2018-11-07T01:11:53Z</time>
      </trkpt>
      <trkpt lat="50.64097" lon="5.26634">
        <ele>153</ele>
        <time>2018-11-07T01:12:53Z</time>
      </trkpt>
      <trkpt lat="50.64085" lon="5.26612">
        <ele>153</ele>
        <time>2018-11-07T01:13:53Z</time>
      </trkpt>
      <trkpt lat="50.64069" lon="5.26588">
        <ele>153</ele>
        <time>2018-11-07T01:14:53Z</time>
      </trkpt>
      <trkpt lat="50.64048" lon="5.26553">
        <ele>153</ele>
        <time>2018-11-07T01:15:53Z</time>
      </trkpt>
      <trkpt lat="50.64041" lon="5.26533">
        <ele>153</ele>
        <time>2018-11-07T01:16:53Z</time>
      </trkpt>
      <trkpt lat="50.64038" lon="5.26512">
        <ele>153</ele>
        <time>2018-11-07T01:17:53Z</time>
      </trkpt>
      <trkpt lat="50.64047" lon="5.26464">
        <ele>152</ele>
        <time>2018-11-07T01:18:53Z</time>
      </trkpt>
      <trkpt lat="50.6406" lon="5.26382">
        <ele>152</ele>
        <time>2018-11-07T01:19:53Z</time>
      </trkpt>
      <trkpt lat="50.64066" lon="5.26341">
        <ele>152</ele>
        <time>2018-11-07T01:20:53Z</time>
      </trkpt>
      <trkpt lat="50.64063" lon="5.26306">
        <ele>152</ele>
        <time>2018-11-07T01:21:53Z</time>
      </trkpt>
      <trkpt lat="50.64057" lon="5.26268">
        <ele>153</ele>
        <time>2018-11-07T01:22:53Z</time>
      </trkpt>
      <trkpt lat="50.64037" lon="5.26163">
        <ele>157</ele>
        <time>2018-11-07T01:23:53Z</time>
      </trkpt>
      <trkpt lat="50.64028" lon="5.26082">
        <ele>158</ele>
        <time>2018-11-07T01:24:53Z</time>
      </trkpt>
      <trkpt lat="50.64021" lon="5.25961">
        <ele>159</ele>
        <time>2018-11-07T01:25:53Z</time>
      </trkpt>
      <trkpt lat="50.64017" lon="5.25928">
        <ele>158</ele>
        <time>2018-11-07T01:26:53Z</time>
      </trkpt>
      <trkpt lat="50.63988" lon="5.25823">
        <ele>158</ele>
        <time>2018-11-07T01:27:53Z</time>
      </trkpt>
      <trkpt lat="50.63925" lon="5.25624">
        <ele>158</ele>
        <time>2018-11-07T01:28:53Z</time>
      </trkpt>
      <trkpt lat="50.63824" lon="5.25302">
        <ele>156</ele>
        <time>2018-11-07T01:29:53Z</time>
      </trkpt>
      <trkpt lat="50.63762" lon="5.25103">
        <ele>152</ele>
        <time>2018-11-07T01:30:53Z</time>
      </trkpt>
      <trkpt lat="50.63724" lon="5.24983">
        <ele>151</ele>
        <time>2018-11-07T01:31:53Z</time>
      </trkpt>
      <trkpt lat="50.63694" lon="5.24896">
        <ele>152</ele>
        <time>2018-11-07T01:32:53Z</time>
      </trkpt>
      <trkpt lat="50.63599" lon="5.24658">
        <ele>156</ele>
        <time>2018-11-07T01:33:53Z</time>
      </trkpt>
      <trkpt lat="50.63582" lon="5.24614">
        <ele>157</ele>
        <time>2018-11-07T01:34:53Z</time>
      </trkpt>
      <trkpt lat="50.6356" lon="5.24568">
        <ele>157</ele>
        <time>2018-11-07T01:35:53Z</time>
      </trkpt>
      <trkpt lat="50.63552" lon="5.24552">
        <ele>157</ele>
        <time>2018-11-07T01:36:53Z</time>
      </trkpt>
      <trkpt lat="50.63528" lon="5.24516">
        <ele>158</ele>
        <time>2018-11-07T01:37:53Z</time>
      </trkpt>
      <trkpt lat="50.63512" lon="5.24493">
        <ele>158</ele>
        <time>2018-11-07T01:38:53Z</time>
      </trkpt>
      <trkpt lat="50.63483" lon="5.24457">
        <ele>158</ele>
        <time>2018-11-07T01:39:53Z</time>
      </trkpt>
      <trkpt lat="50.63433" lon="5.24399">
        <ele>159</ele>
        <time>2018-11-07T01:40:53Z</time>
      </trkpt>
      <trkpt lat="50.63406" lon="5.24368">
        <ele>159</ele>
        <time>2018-11-07T01:41:53Z</time>
      </trkpt>
      <trkpt lat="50.63381" lon="5.24349">
        <ele>160</ele>
        <time>2018-11-07T01:42:53Z</time>
      </trkpt>
      <trkpt lat="50.63364" lon="5.24341">
        <ele>161</ele>
        <time>2018-11-07T01:43:53Z</time>
      </trkpt>
      <trkpt lat="50.63347" lon="5.24338">
        <ele>161</ele>
        <time>2018-11-07T01:44:53Z</time>
      </trkpt>
      <trkpt lat="50.63334" lon="5.24341">
        <ele>161</ele>
        <time>2018-11-07T01:45:53Z</time>
      </trkpt>
      <trkpt lat="50.63323" lon="5.24332">
        <ele>161</ele>
        <time>2018-11-07T01:46:53Z</time>
      </trkpt>
      <trkpt lat="50.63306" lon="5.24296">
        <ele>161</ele>
        <time>2018-11-07T01:47:53Z</time>
      </trkpt>
      <trkpt lat="50.63294" lon="5.24265">
        <ele>161</ele>
        <time>2018-11-07T01:48:53Z</time>
      </trkpt>
      <trkpt lat="50.63289" lon="5.24235">
        <ele>162</ele>
        <time>2018-11-07T01:49:53Z</time>
      </trkpt>
      <trkpt lat="50.63281" lon="5.24223">
        <ele>162</ele>
        <time>2018-11-07T01:50:53Z</time>
      </trkpt>
      <trkpt lat="50.63271" lon="5.24196">
        <ele>162</ele>
        <time>2018-11-07T01:51:53Z</time>
      </trkpt>
      <trkpt lat="50.63235" lon="5.24114">
        <ele>162</ele>
        <time>2018-11-07T01:52:53Z</time>
      </trkpt>
      <trkpt lat="50.63216" lon="5.24078">
        <ele>162</ele>
        <time>2018-11-07T01:53:53Z</time>
      </trkpt>
      <trkpt lat="50.63196" lon="5.24052">
        <ele>163</ele>
        <time>2018-11-07T01:54:53Z</time>
      </trkpt>
      <trkpt lat="50.63151" lon="5.23993">
        <ele>164</ele>
        <time>2018-11-07T01:55:53Z</time>
      </trkpt>
      <trkpt lat="50.63123" lon="5.23959">
        <ele>164</ele>
        <time>2018-11-07T01:56:53Z</time>
      </trkpt>
      <trkpt lat="50.63092" lon="5.2392">
        <ele>165</ele>
        <time>2018-11-07T01:57:53Z</time>
      </trkpt>
      <trkpt lat="50.63087" lon="5.23912">
        <ele>165</ele>
        <time>2018-11-07T01:58:53Z</time>
      </trkpt>
      <trkpt lat="50.63044" lon="5.23858">
        <ele>163</ele>
        <time>2018-11-07T01:59:53Z</time>
      </trkpt>
      <trkpt lat="50.63" lon="5.23801">
        <ele>162</ele>
        <time>2018-11-07T02:00:53Z</time>
      </trkpt>
      <trkpt lat="50.62983" lon="5.2378">
        <ele>162</ele>
        <time>2018-11-07T02:01:53Z</time>
      </trkpt>
      <trkpt lat="50.62943" lon="5.23722">
        <ele>162</ele>
        <time>2018-11-07T02:02:53Z</time>
      </trkpt>
      <trkpt lat="50.62912" lon="5.23676">
        <ele>162</ele>
        <time>2018-11-07T02:03:53Z</time>
      </trkpt>
      <trkpt lat="50.62832" lon="5.23563">
        <ele>161</ele>
        <time>2018-11-07T02:04:53Z</time>
      </trkpt>
      <trkpt lat="50.6279" lon="5.23504">
        <ele>163</ele>
        <time>2018-11-07T02:05:53Z</time>
      </trkpt>
      <trkpt lat="50.62746" lon="5.23447">
        <ele>165</ele>
        <time>2018-11-07T02:06:53Z</time>
      </trkpt>
      <trkpt lat="50.62711" lon="5.23403">
        <ele>166</ele>
        <time>2018-11-07T02:07:53Z</time>
      </trkpt>
      <trkpt lat="50.62594" lon="5.23145">
        <ele>168</ele>
        <time>2018-11-07T02:08:53Z</time>
      </trkpt>
      <trkpt lat="50.62588" lon="5.23127">
        <ele>168</ele>
        <time>2018-11-07T02:09:53Z</time>
      </trkpt>
      <trkpt lat="50.62539" lon="5.22897">
        <ele>167</ele>
        <time>2018-11-07T02:10:53Z</time>
      </trkpt>
      <trkpt lat="50.62528" lon="5.2285">
        <ele>167</ele>
        <time>2018-11-07T02:11:53Z</time>
      </trkpt>
      <trkpt lat="50.62502" lon="5.22867">
        <ele>167</ele>
        <time>2018-11-07T02:12:53Z</time>
      </trkpt>
      <trkpt lat="50.62371" lon="5.22956">
        <ele>169</ele>
        <time>2018-11-07T02:13:53Z</time>
      </trkpt>
      <trkpt lat="50.62348" lon="5.22974">
        <ele>169</ele>
        <time>2018-11-07T02:14:53Z</time>
      </trkpt>
      <trkpt lat="50.62301" lon="5.23006">
        <ele>170</ele>
        <time>2018-11-07T02:15:53Z</time>
      </trkpt>
      <trkpt lat="50.62262" lon="5.23031">
        <ele>171</ele>
        <time>2018-11-07T02:16:53Z</time>
      </trkpt>
      <trkpt lat="50.62235" lon="5.23042">
        <ele>172</ele>
        <time>2018-11-07T02:17:53Z</time>
      </trkpt>
      <trkpt lat="50.62209" lon="5.23049">
        <ele>173</ele>
        <time>2018-11-07T02:18:53Z</time>
      </trkpt>
      <trkpt lat="50.62127" lon="5.23062">
        <ele>176</ele>
        <time>2018-11-07T02:19:53Z</time>
      </trkpt>
      <trkpt lat="50.62103" lon="5.23066">
        <ele>177</ele>
        <time>2018-11-07T02:20:53Z</time>
      </trkpt>
      <trkpt lat="50.62013" lon="5.23082">
        <ele>175</ele>
        <time>2018-11-07T02:21:53Z</time>
      </trkpt>
      <trkpt lat="50.61956" lon="5.23092">
        <ele>173</ele>
        <time>2018-11-07T02:22:53Z</time>
      </trkpt>
      <trkpt lat="50.61927" lon="5.23105">
        <ele>172</ele>
        <time>2018-11-07T02:23:53Z</time>
      </trkpt>
      <trkpt lat="50.61895" lon="5.23128">
        <ele>171</ele>
        <time>2018-11-07T02:24:53Z</time>
      </trkpt>
      <trkpt lat="50.61879" lon="5.23139">
        <ele>170</ele>
        <time>2018-11-07T02:25:53Z</time>
      </trkpt>
      <trkpt lat="50.61787" lon="5.23202">
        <ele>167</ele>
        <time>2018-11-07T02:26:53Z</time>
      </trkpt>
      <trkpt lat="50.61734" lon="5.2324">
        <ele>164</ele>
        <time>2018-11-07T02:27:53Z</time>
      </trkpt>
      <trkpt lat="50.61691" lon="5.23271">
        <ele>161</ele>
        <time>2018-11-07T02:28:53Z</time>
      </trkpt>
      <trkpt lat="50.61655" lon="5.23297">
        <ele>159</ele>
        <time>2018-11-07T02:29:53Z</time>
      </trkpt>
      <trkpt lat="50.61639" lon="5.23314">
        <ele>159</ele>
        <time>2018-11-07T02:30:53Z</time>
      </trkpt>
      <trkpt lat="50.61628" lon="5.23334">
        <ele>158</ele>
        <time>2018-11-07T02:31:53Z</time>
      </trkpt>
      <trkpt lat="50.61617" lon="5.2336">
        <ele>158</ele>
        <time>2018-11-07T02:32:53Z</time>
      </trkpt>
      <trkpt lat="50.61605" lon="5.23376">
        <ele>157</ele>
        <time>2018-11-07T02:33:53Z</time>
      </trkpt>
      <trkpt lat="50.61594" lon="5.23386">
        <ele>157</ele>
        <time>2018-11-07T02:34:53Z</time>
      </trkpt>
      <trkpt lat="50.61566" lon="5.23403">
        <ele>156</ele>
        <time>2018-11-07T02:35:53Z</time>
      </trkpt>
      <trkpt lat="50.61539" lon="5.23414">
        <ele>156</ele>
        <time>2018-11-07T02:36:53Z</time>
      </trkpt>
      <trkpt lat="50.61523" lon="5.23407">
        <ele>155</ele>
        <time>2018-11-07T02:37:53Z</time>
      </trkpt>
      <trkpt lat="50.61508" lon="5.23387">
        <ele>155</ele>
        <time>2018-11-07T02:38:53Z</time>
      </trkpt>
      <trkpt lat="50.61466" lon="5.2329">
        <ele>155</ele>
        <time>2018-11-07T02:39:53Z</time>
      </trkpt>
      <trkpt lat="50.61442" lon="5.23228">
        <ele>155</ele>
        <time>2018-11-07T02:40:53Z</time>
      </trkpt>
      <trkpt lat="50.61426" lon="5.23202">
        <ele>154</ele>
        <time>2018-11-07T02:41:53Z</time>
      </trkpt>
      <trkpt lat="50.61397" lon="5.23191">
        <ele>154</ele>
        <time>2018-11-07T02:42:53Z</time>
      </trkpt>
      <trkpt lat="50.61361" lon="5.23195">
        <ele>157</ele>
        <time>2018-11-07T02:43:53Z</time>
      </trkpt>
      <trkpt lat="50.61344" lon="5.23136">
        <ele>156</ele>
        <time>2018-11-07T02:44:53Z</time>
      </trkpt>
      <trkpt lat="50.61334" lon="5.23132">
        <ele>157</ele>
        <time>2018-11-07T02:45:53Z</time>
      </trkpt>
      <trkpt lat="50.61319" lon="5.23117">
        <ele>157</ele>
        <time>2018-11-07T02:46:53Z</time>
      </trkpt>
      <trkpt lat="50.61301" lon="5.23096">
        <ele>157</ele>
        <time>2018-11-07T02:47:53Z</time>
      </trkpt>
      <trkpt lat="50.61276" lon="5.23063">
        <ele>157</ele>
        <time>2018-11-07T02:48:53Z</time>
      </trkpt>
      <trkpt lat="50.61227" lon="5.23034">
        <ele>158</ele>
        <time>2018-11-07T02:49:53Z</time>
      </trkpt>
      <trkpt lat="50.61207" lon="5.23012">
        <ele>158</ele>
        <time>2018-11-07T02:50:53Z</time>
      </trkpt>
      <trkpt lat="50.61214" lon="5.22995">
        <ele>157</ele>
        <time>2018-11-07T02:51:53Z</time>
      </trkpt>
      <trkpt lat="50.61223" lon="5.22975">
        <ele>156</ele>
        <time>2018-11-07T02:52:53Z</time>
      </trkpt>
      <trkpt lat="50.6125" lon="5.22925">
        <ele>154</ele>
        <time>2018-11-07T02:53:53Z</time>
      </trkpt>
      <trkpt lat="50.61247" lon="5.22912">
        <ele>154</ele>
        <time>2018-11-07T02:54:53Z</time>
      </trkpt>
      <trkpt lat="50.61235" lon="5.22887">
        <ele>154</ele>
        <time>2018-11-07T02:55:53Z</time>
      </trkpt>
      <trkpt lat="50.6121" lon="5.2284">
        <ele>153</ele>
        <time>2018-11-07T02:56:53Z</time>
      </trkpt>
      <trkpt lat="50.6119" lon="5.22808">
        <ele>153</ele>
        <time>2018-11-07T02:57:53Z</time>
      </trkpt>
      <trkpt lat="50.61185" lon="5.22762">
        <ele>151</ele>
        <time>2018-11-07T02:58:53Z</time>
      </trkpt>
      <trkpt lat="50.61167" lon="5.22715">
        <ele>150</ele>
        <time>2018-11-07T02:59:53Z</time>
      </trkpt>
      <trkpt lat="50.6111" lon="5.22574">
        <ele>149</ele>
        <time>2018-11-07T03:00:53Z</time>
      </trkpt>
      <trkpt lat="50.61067" lon="5.22463">
        <ele>147</ele>
        <time>2018-11-07T03:01:53Z</time>
      </trkpt>
      <trkpt lat="50.6104" lon="5.22411">
        <ele>146</ele>
        <time>2018-11-07T03:02:53Z</time>
      </trkpt>
      <trkpt lat="50.6102" lon="5.22374">
        <ele>147</ele>
        <time>2018-11-07T03:03:53Z</time>
      </trkpt>
      <trkpt lat="50.60968" lon="5.22299">
        <ele>146</ele>
        <time>2018-11-07T03:04:53Z</time>
      </trkpt>
      <trkpt lat="50.60936" lon="5.22258">
        <ele>146</ele>
        <time>2018-11-07T03:05:53Z</time>
      </trkpt>
      <trkpt lat="50.60898" lon="5.22167">
        <ele>146</ele>
        <time>2018-11-07T03:06:53Z</time>
      </trkpt>
      <trkpt lat="50.60884" lon="5.22137">
        <ele>145</ele>
        <time>2018-11-07T03:07:53Z</time>
      </trkpt>
      <trkpt lat="50.60846" lon="5.22061">
        <ele>145</ele>
        <time>2018-11-07T03:08:53Z</time>
      </trkpt>
      <trkpt lat="50.60792" lon="5.21961">
        <ele>142</ele>
        <time>2018-11-07T03:09:53Z</time>
      </trkpt>
      <trkpt lat="50.60778" lon="5.21938">
        <ele>142</ele>
        <time>2018-11-07T03:10:53Z</time>
      </trkpt>
      <trkpt lat="50.60754" lon="5.21884">
        <ele>140</ele>
        <time>2018-11-07T03:11:53Z</time>
      </trkpt>
      <trkpt lat="50.60696" lon="5.21757">
        <ele>137</ele>
        <time>2018-11-07T03:12:53Z</time>
      </trkpt>
      <trkpt lat="50.60666" lon="5.21691">
        <ele>134</ele>
        <time>2018-11-07T03:13:53Z</time>
      </trkpt>
      <trkpt lat="50.60634" lon="5.21618">
        <ele>132</ele>
        <time>2018-11-07T03:14:53Z</time>
      </trkpt>
      <trkpt lat="50.60615" lon="5.21569">
        <ele>130</ele>
        <time>2018-11-07T03:15:53Z</time>
      </trkpt>
      <trkpt lat="50.606" lon="5.2153">
        <ele>129</ele>
        <time>2018-11-07T03:16:53Z</time>
      </trkpt>
      <trkpt lat="50.60542" lon="5.2137">
        <ele>130</ele>
        <time>2018-11-07T03:17:53Z</time>
      </trkpt>
      <trkpt lat="50.60507" lon="5.21263">
        <ele>129</ele>
        <time>2018-11-07T03:18:53Z</time>
      </trkpt>
      <trkpt lat="50.60454" lon="5.21117">
        <ele>128</ele>
        <time>2018-11-07T03:19:53Z</time>
      </trkpt>
      <trkpt lat="50.60443" lon="5.21082">
        <ele>127</ele>
        <time>2018-11-07T03:20:53Z</time>
      </trkpt>
      <trkpt lat="50.60446" lon="5.21063">
        <ele>127</ele>
        <time>2018-11-07T03:21:53Z</time>
      </trkpt>
      <trkpt lat="50.60464" lon="5.21043">
        <ele>127</ele>
        <time>2018-11-07T03:22:53Z</time>
      </trkpt>
      <trkpt lat="50.60499" lon="5.21016">
        <ele>127</ele>
        <time>2018-11-07T03:23:53Z</time>
      </trkpt>
      <trkpt lat="50.60532" lon="5.21">
        <ele>131</ele>
        <time>2018-11-07T03:24:53Z</time>
      </trkpt>
      <trkpt lat="50.60537" lon="5.20987">
        <ele>132</ele>
        <time>2018-11-07T03:25:53Z</time>
      </trkpt>
      <trkpt lat="50.60535" lon="5.20964">
        <ele>133</ele>
        <time>2018-11-07T03:26:53Z</time>
      </trkpt>
      <trkpt lat="50.60531" lon="5.20932">
        <ele>133</ele>
        <time>2018-11-07T03:27:53Z</time>
      </trkpt>
      <trkpt lat="50.60521" lon="5.20894">
        <ele>134</ele>
        <time>2018-11-07T03:28:53Z</time>
      </trkpt>
      <trkpt lat="50.60515" lon="5.20873">
        <ele>134</ele>
        <time>2018-11-07T03:29:53Z</time>
      </trkpt>
      <trkpt lat="50.60488" lon="5.2079">
        <ele>137</ele>
        <time>2018-11-07T03:30:53Z</time>
      </trkpt>
      <trkpt lat="50.60463" lon="5.20712">
        <ele>136</ele>
        <time>2018-11-07T03:31:53Z</time>
      </trkpt>
      <trkpt lat="50.60444" lon="5.20654">
        <ele>134</ele>
        <time>2018-11-07T03:32:53Z</time>
      </trkpt>
      <trkpt lat="50.60419" lon="5.20553">
        <ele>133</ele>
        <time>2018-11-07T03:33:53Z</time>
      </trkpt>
      <trkpt lat="50.60407" lon="5.20501">
        <ele>132</ele>
        <time>2018-11-07T03:34:53Z</time>
      </trkpt>
      <trkpt lat="50.60401" lon="5.20455">
        <ele>131</ele>
        <time>2018-11-07T03:35:53Z</time>
      </trkpt>
      <trkpt lat="50.60395" lon="5.20397">
        <ele>130</ele>
        <time>2018-11-07T03:36:53Z</time>
      </trkpt>
      <trkpt lat="50.60396" lon="5.20338">
        <ele>130</ele>
        <time>2018-11-07T03:37:53Z</time>
      </trkpt>
      <trkpt lat="50.60393" lon="5.20293">
        <ele>131</ele>
        <time>2018-11-07T03:38:53Z</time>
      </trkpt>
      <trkpt lat="50.60345" lon="5.20084">
        <ele>127</ele>
        <time>2018-11-07T03:39:53Z</time>
      </trkpt>
      <trkpt lat="50.6034" lon="5.20059">
        <ele>127</ele>
        <time>2018-11-07T03:40:53Z</time>
      </trkpt>
      <trkpt lat="50.60317" lon="5.19986">
        <ele>127</ele>
        <time>2018-11-07T03:41:53Z</time>
      </trkpt>
      <trkpt lat="50.60312" lon="5.19974">
        <ele>126</ele>
        <time>2018-11-07T03:42:53Z</time>
      </trkpt>
      <trkpt lat="50.60305" lon="5.19959">
        <ele>126</ele>
        <time>2018-11-07T03:43:53Z</time>
      </trkpt>
      <trkpt lat="50.60297" lon="5.19935">
        <ele>125</ele>
        <time>2018-11-07T03:44:53Z</time>
      </trkpt>
      <trkpt lat="50.60294" lon="5.19921">
        <ele>125</ele>
        <time>2018-11-07T03:45:53Z</time>
      </trkpt>
      <trkpt lat="50.60287" lon="5.19896">
        <ele>125</ele>
        <time>2018-11-07T03:46:53Z</time>
      </trkpt>
      <trkpt lat="50.60274" lon="5.1986">
        <ele>124</ele>
        <time>2018-11-07T03:47:53Z</time>
      </trkpt>
      <trkpt lat="50.60262" lon="5.19817">
        <ele>123</ele>
        <time>2018-11-07T03:48:53Z</time>
      </trkpt>
      <trkpt lat="50.60253" lon="5.19761">
        <ele>121</ele>
        <time>2018-11-07T03:49:53Z</time>
      </trkpt>
      <trkpt lat="50.60251" lon="5.19713">
        <ele>120</ele>
        <time>2018-11-07T03:50:53Z</time>
      </trkpt>
      <trkpt lat="50.60257" lon="5.1966">
        <ele>120</ele>
        <time>2018-11-07T03:51:53Z</time>
      </trkpt>
      <trkpt lat="50.60272" lon="5.19593">
        <ele>120</ele>
        <time>2018-11-07T03:52:53Z</time>
      </trkpt>
      <trkpt lat="50.6029" lon="5.19513">
        <ele>121</ele>
        <time>2018-11-07T03:53:53Z</time>
      </trkpt>
      <trkpt lat="50.60303" lon="5.19454">
        <ele>120</ele>
        <time>2018-11-07T03:54:53Z</time>
      </trkpt>
      <trkpt lat="50.60294" lon="5.19432">
        <ele>119</ele>
        <time>2018-11-07T03:55:53Z</time>
      </trkpt>
      <trkpt lat="50.60284" lon="5.19411">
        <ele>117</ele>
        <time>2018-11-07T03:56:53Z</time>
      </trkpt>
      <trkpt lat="50.60297" lon="5.19397">
        <ele>118</ele>
        <time>2018-11-07T03:57:53Z</time>
      </trkpt>
      <trkpt lat="50.60358" lon="5.19329">
        <ele>119</ele>
        <time>2018-11-07T03:58:53Z</time>
      </trkpt>
      <trkpt lat="50.60377" lon="5.1931">
        <ele>120</ele>
        <time>2018-11-07T03:59:53Z</time>
      </trkpt>
      <trkpt lat="50.60376" lon="5.19279">
        <ele>118</ele>
        <time>2018-11-07T04:00:53Z</time>
      </trkpt>
      <trkpt lat="50.60372" lon="5.1926">
        <ele>117</ele>
        <time>2018-11-07T04:01:53Z</time>
      </trkpt>
      <trkpt lat="50.60346" lon="5.19158">
        <ele>112</ele>
        <time>2018-11-07T04:02:53Z</time>
      </trkpt>
      <trkpt lat="50.60306" lon="5.19008">
        <ele>114</ele>
        <time>2018-11-07T04:03:53Z</time>
      </trkpt>
      <trkpt lat="50.60294" lon="5.18984">
        <ele>115</ele>
        <time>2018-11-07T04:04:53Z</time>
      </trkpt>
      <trkpt lat="50.60267" lon="5.18958">
        <ele>115</ele>
        <time>2018-11-07T04:05:53Z</time>
      </trkpt>
      <trkpt lat="50.6025" lon="5.18929">
        <ele>115</ele>
        <time>2018-11-07T04:06:53Z</time>
      </trkpt>
      <trkpt lat="50.60241" lon="5.18899">
        <ele>115</ele>
        <time>2018-11-07T04:07:53Z</time>
      </trkpt>
      <trkpt lat="50.60234" lon="5.18869">
        <ele>115</ele>
        <time>2018-11-07T04:08:53Z</time>
      </trkpt>
      <trkpt lat="50.60231" lon="5.18819">
        <ele>114</ele>
        <time>2018-11-07T04:09:53Z</time>
      </trkpt>
      <trkpt lat="50.60232" lon="5.1878">
        <ele>113</ele>
        <time>2018-11-07T04:10:53Z</time>
      </trkpt>
      <trkpt lat="50.60235" lon="5.18746">
        <ele>112</ele>
        <time>2018-11-07T04:11:53Z</time>
      </trkpt>
      <trkpt lat="50.60243" lon="5.18717">
        <ele>111</ele>
        <time>2018-11-07T04:12:53Z</time>
      </trkpt>
      <trkpt lat="50.60256" lon="5.18699">
        <ele>110</ele>
        <time>2018-11-07T04:13:53Z</time>
      </trkpt>
      <trkpt lat="50.60276" lon="5.1868">
        <ele>110</ele>
        <time>2018-11-07T04:14:53Z</time>
      </trkpt>
      <trkpt lat="50.60297" lon="5.18663">
        <ele>111</ele>
        <time>2018-11-07T04:15:53Z</time>
      </trkpt>
      <trkpt lat="50.60284" lon="5.18638">
        <ele>110</ele>
        <time>2018-11-07T04:16:53Z</time>
      </trkpt>
      <trkpt lat="50.60265" lon="5.18607">
        <ele>109</ele>
        <time>2018-11-07T04:17:53Z</time>
      </trkpt>
      <trkpt lat="50.60246" lon="5.18574">
        <ele>108</ele>
        <time>2018-11-07T04:18:53Z</time>
      </trkpt>
      <trkpt lat="50.60236" lon="5.18559">
        <ele>109</ele>
        <time>2018-11-07T04:19:53Z</time>
      </trkpt>
      <trkpt lat="50.60215" lon="5.18539">
        <ele>110</ele>
        <time>2018-11-07T04:20:53Z</time>
      </trkpt>
      <trkpt lat="50.60196" lon="5.18518">
        <ele>111</ele>
        <time>2018-11-07T04:21:53Z</time>
      </trkpt>
      <trkpt lat="50.60117" lon="5.18442">
        <ele>110</ele>
        <time>2018-11-07T04:22:53Z</time>
      </trkpt>
      <trkpt lat="50.60067" lon="5.18392">
        <ele>109</ele>
        <time>2018-11-07T04:23:53Z</time>
      </trkpt>
      <trkpt lat="50.60027" lon="5.18332">
        <ele>109</ele>
        <time>2018-11-07T04:24:53Z</time>
      </trkpt>
      <trkpt lat="50.59989" lon="5.18292">
        <ele>109</ele>
        <time>2018-11-07T04:25:53Z</time>
      </trkpt>
      <trkpt lat="50.59942" lon="5.18246">
        <ele>108</ele>
        <time>2018-11-07T04:26:53Z</time>
      </trkpt>
      <trkpt lat="50.59891" lon="5.18194">
        <ele>107</ele>
        <time>2018-11-07T04:27:53Z</time>
      </trkpt>
      <trkpt lat="50.59847" lon="5.18152">
        <ele>107</ele>
        <time>2018-11-07T04:28:53Z</time>
      </trkpt>
      <trkpt lat="50.59815" lon="5.18143">
        <ele>107</ele>
        <time>2018-11-07T04:29:53Z</time>
      </trkpt>
      <trkpt lat="50.59778" lon="5.18138">
        <ele>108</ele>
        <time>2018-11-07T04:30:53Z</time>
      </trkpt>
      <trkpt lat="50.5972" lon="5.18127">
        <ele>111</ele>
        <time>2018-11-07T04:31:53Z</time>
      </trkpt>
      <trkpt lat="50.59701" lon="5.18131">
        <ele>112</ele>
        <time>2018-11-07T04:32:53Z</time>
      </trkpt>
      <trkpt lat="50.59692" lon="5.18143">
        <ele>112</ele>
        <time>2018-11-07T04:33:53Z</time>
      </trkpt>
      <trkpt lat="50.59673" lon="5.18196">
        <ele>112</ele>
        <time>2018-11-07T04:34:53Z</time>
      </trkpt>
      <trkpt lat="50.59658" lon="5.18236">
        <ele>113</ele>
        <time>2018-11-07T04:35:53Z</time>
      </trkpt>
      <trkpt lat="50.59598" lon="5.18348">
        <ele>116</ele>
        <time>2018-11-07T04:36:53Z</time>
      </trkpt>
      <trkpt lat="50.59501" lon="5.18531">
        <ele>117</ele>
        <time>2018-11-07T04:37:53Z</time>
      </trkpt>
      <trkpt lat="50.5948" lon="5.18567">
        <ele>117</ele>
        <time>2018-11-07T04:38:53Z</time>
      </trkpt>
      <trkpt lat="50.59449" lon="5.18593">
        <ele>118</ele>
        <time>2018-11-07T04:39:53Z</time>
      </trkpt>
      <trkpt lat="50.59434" lon="5.18602">
        <ele>118</ele>
        <time>2018-11-07T04:40:53Z</time>
      </trkpt>
      <trkpt lat="50.59382" lon="5.18628">
        <ele>117</ele>
        <time>2018-11-07T04:41:53Z</time>
      </trkpt>
      <trkpt lat="50.59327" lon="5.18649">
        <ele>116</ele>
        <time>2018-11-07T04:42:53Z</time>
      </trkpt>
      <trkpt lat="50.59275" lon="5.1864">
        <ele>115</ele>
        <time>2018-11-07T04:43:53Z</time>
      </trkpt>
      <trkpt lat="50.59106" lon="5.18518">
        <ele>113</ele>
        <time>2018-11-07T04:44:53Z</time>
      </trkpt>
      <trkpt lat="50.59089" lon="5.18503">
        <ele>114</ele>
        <time>2018-11-07T04:45:53Z</time>
      </trkpt>
      <trkpt lat="50.59046" lon="5.18463">
        <ele>117</ele>
        <time>2018-11-07T04:46:53Z</time>
      </trkpt>
      <trkpt lat="50.58997" lon="5.18415">
        <ele>119</ele>
        <time>2018-11-07T04:47:53Z</time>
      </trkpt>
      <trkpt lat="50.58955" lon="5.18375">
        <ele>121</ele>
        <time>2018-11-07T04:48:53Z</time>
      </trkpt>
      <trkpt lat="50.58898" lon="5.1832">
        <ele>120</ele>
        <time>2018-11-07T04:49:53Z</time>
      </trkpt>
      <trkpt lat="50.58866" lon="5.18296">
        <ele>118</ele>
        <time>2018-11-07T04:50:53Z</time>
      </trkpt>
      <trkpt lat="50.58805" lon="5.18283">
        <ele>114</ele>
        <time>2018-11-07T04:51:53Z</time>
      </trkpt>
      <trkpt lat="50.58779" lon="5.18283">
        <ele>112</ele>
        <time>2018-11-07T04:52:53Z</time>
      </trkpt>
      <trkpt lat="50.58767" lon="5.18286">
        <ele>111</ele>
        <time>2018-11-07T04:53:53Z</time>
      </trkpt>
      <trkpt lat="50.58753" lon="5.18304">
        <ele>110</ele>
        <time>2018-11-07T04:54:53Z</time>
      </trkpt>
      <trkpt lat="50.58739" lon="5.18328">
        <ele>109</ele>
        <time>2018-11-07T04:55:53Z</time>
      </trkpt>
      <trkpt lat="50.58727" lon="5.18337">
        <ele>108</ele>
        <time>2018-11-07T04:56:53Z</time>
      </trkpt>
      <trkpt lat="50.58713" lon="5.18336">
        <ele>107</ele>
        <time>2018-11-07T04:57:53Z</time>
      </trkpt>
      <trkpt lat="50.58697" lon="5.18332">
        <ele>106</ele>
        <time>2018-11-07T04:58:53Z</time>
      </trkpt>
      <trkpt lat="50.58671" lon="5.1832">
        <ele>104</ele>
        <time>2018-11-07T04:59:53Z</time>
      </trkpt>
      <trkpt lat="50.58682" lon="5.18287">
        <ele>104</ele>
        <time>2018-11-07T05:00:53Z</time>
      </trkpt>
      <trkpt lat="50.58698" lon="5.18241">
        <ele>105</ele>
        <time>2018-11-07T05:01:53Z</time>
      </trkpt>
      <trkpt lat="50.58707" lon="5.18201">
        <ele>106</ele>
        <time>2018-11-07T05:02:53Z</time>
      </trkpt>
      <trkpt lat="50.58718" lon="5.18142">
        <ele>108</ele>
        <time>2018-11-07T05:03:53Z</time>
      </trkpt>
      <trkpt lat="50.58736" lon="5.17978">
        <ele>112</ele>
        <time>2018-11-07T05:04:53Z</time>
      </trkpt>
      <trkpt lat="50.58741" lon="5.17921">
        <ele>115</ele>
        <time>2018-11-07T05:05:53Z</time>
      </trkpt>
      <trkpt lat="50.5874" lon="5.17831">
        <ele>118</ele>
        <time>2018-11-07T05:06:53Z</time>
      </trkpt>
      <trkpt lat="50.58738" lon="5.17776">
        <ele>120</ele>
        <time>2018-11-07T05:07:53Z</time>
      </trkpt>
      <trkpt lat="50.58723" lon="5.17717">
        <ele>122</ele>
        <time>2018-11-07T05:08:53Z</time>
      </trkpt>
      <trkpt lat="50.58702" lon="5.17671">
        <ele>123</ele>
        <time>2018-11-07T05:09:53Z</time>
      </trkpt>
      <trkpt lat="50.58692" lon="5.17648">
        <ele>125</ele>
        <time>2018-11-07T05:10:53Z</time>
      </trkpt>
      <trkpt lat="50.5867" lon="5.17604">
        <ele>128</ele>
        <time>2018-11-07T05:11:53Z</time>
      </trkpt>
      <trkpt lat="50.58652" lon="5.17574">
        <ele>131</ele>
        <time>2018-11-07T05:12:53Z</time>
      </trkpt>
      <trkpt lat="50.58619" lon="5.17556">
        <ele>132</ele>
        <time>2018-11-07T05:13:53Z</time>
      </trkpt>
      <trkpt lat="50.58541" lon="5.17511">
        <ele>134</ele>
        <time>2018-11-07T05:14:53Z</time>
      </trkpt>
      <trkpt lat="50.58502" lon="5.17489">
        <ele>133</ele>
        <time>2018-11-07T05:15:53Z</time>
      </trkpt>
      <trkpt lat="50.58479" lon="5.17447">
        <ele>135</ele>
        <time>2018-11-07T05:16:53Z</time>
      </trkpt>
      <trkpt lat="50.58477" lon="5.17402">
        <ele>137</ele>
        <time>2018-11-07T05:17:53Z</time>
      </trkpt>
      <trkpt lat="50.58483" lon="5.17372">
        <ele>137</ele>
        <time>2018-11-07T05:18:53Z</time>
      </trkpt>
      <trkpt lat="50.58504" lon="5.17346">
        <ele>139</ele>
        <time>2018-11-07T05:19:53Z</time>
      </trkpt>
      <trkpt lat="50.58579" lon="5.17253">
        <ele>148</ele>
        <time>2018-11-07T05:20:53Z</time>
      </trkpt>
      <trkpt lat="50.58585" lon="5.17236">
        <ele>150</ele>
        <time>2018-11-07T05:21:53Z</time>
      </trkpt>
      <trkpt lat="50.5859" lon="5.17196">
        <ele>152</ele>
        <time>2018-11-07T05:22:53Z</time>
      </trkpt>
      <trkpt lat="50.58594" lon="5.17013">
        <ele>154</ele>
        <time>2018-11-07T05:23:53Z</time>
      </trkpt>
      <trkpt lat="50.58593" lon="5.16838">
        <ele>153</ele>
        <time>2018-11-07T05:24:53Z</time>
      </trkpt>
      <trkpt lat="50.58584" lon="5.1672">
        <ele>154</ele>
        <time>2018-11-07T05:25:53Z</time>
      </trkpt>
      <trkpt lat="50.58582" lon="5.16667">
        <ele>157</ele>
        <time>2018-11-07T05:26:53Z</time>
      </trkpt>
      <trkpt lat="50.58588" lon="5.16628">
        <ele>158</ele>
        <time>2018-11-07T05:27:53Z</time>
      </trkpt>
      <trkpt lat="50.58606" lon="5.16513">
        <ele>160</ele>
        <time>2018-11-07T05:28:53Z</time>
      </trkpt>
      <trkpt lat="50.58626" lon="5.16405">
        <ele>163</ele>
        <time>2018-11-07T05:29:53Z</time>
      </trkpt>
      <trkpt lat="50.58641" lon="5.16324">
        <ele>165</ele>
        <time>2018-11-07T05:30:53Z</time>
      </trkpt>
      <trkpt lat="50.58654" lon="5.1628">
        <ele>166</ele>
        <time>2018-11-07T05:31:53Z</time>
      </trkpt>
      <trkpt lat="50.58701" lon="5.16122">
        <ele>168</ele>
        <time>2018-11-07T05:32:53Z</time>
      </trkpt>
      <trkpt lat="50.58742" lon="5.15991">
        <ele>172</ele>
        <time>2018-11-07T05:33:53Z</time>
      </trkpt>
      <trkpt lat="50.58803" lon="5.15796">
        <ele>171</ele>
        <time>2018-11-07T05:34:53Z</time>
      </trkpt>
      <trkpt lat="50.58867" lon="5.15591">
        <ele>174</ele>
        <time>2018-11-07T05:35:53Z</time>
      </trkpt>
      <trkpt lat="50.58912" lon="5.15534">
        <ele>172</ele>
        <time>2018-11-07T05:36:53Z</time>
      </trkpt>
      <trkpt lat="50.5896" lon="5.15471">
        <ele>172</ele>
        <time>2018-11-07T05:37:53Z</time>
      </trkpt>
      <trkpt lat="50.58951" lon="5.15449">
        <ele>172</ele>
        <time>2018-11-07T05:38:53Z</time>
      </trkpt>
      <trkpt lat="50.58939" lon="5.15431">
        <ele>171</ele>
        <time>2018-11-07T05:39:53Z</time>
      </trkpt>
      <trkpt lat="50.58918" lon="5.1541">
        <ele>171</ele>
        <time>2018-11-07T05:40:53Z</time>
      </trkpt>
      <trkpt lat="50.58882" lon="5.15371">
        <ele>172</ele>
        <time>2018-11-07T05:41:53Z</time>
      </trkpt>
      <trkpt lat="50.58854" lon="5.15342">
        <ele>172</ele>
        <time>2018-11-07T05:42:53Z</time>
      </trkpt>
      <trkpt lat="50.58826" lon="5.15321">
        <ele>172</ele>
        <time>2018-11-07T05:43:53Z</time>
      </trkpt>
      <trkpt lat="50.5881" lon="5.15302">
        <ele>172</ele>
        <time>2018-11-07T05:44:53Z</time>
      </trkpt>
      <trkpt lat="50.58759" lon="5.15251">
        <ele>172</ele>
        <time>2018-11-07T05:45:53Z</time>
      </trkpt>
      <trkpt lat="50.58722" lon="5.15195">
        <ele>172</ele>
        <time>2018-11-07T05:46:53Z</time>
      </trkpt>
      <trkpt lat="50.58659" lon="5.15096">
        <ele>173</ele>
        <time>2018-11-07T05:47:53Z</time>
      </trkpt>
      <trkpt lat="50.58625" lon="5.15035">
        <ele>173</ele>
        <time>2018-11-07T05:48:53Z</time>
      </trkpt>
      <trkpt lat="50.58601" lon="5.15001">
        <ele>174</ele>
        <time>2018-11-07T05:49:53Z</time>
      </trkpt>
      <trkpt lat="50.58581" lon="5.14979">
        <ele>174</ele>
        <time>2018-11-07T05:50:53Z</time>
      </trkpt>
      <trkpt lat="50.58564" lon="5.14958">
        <ele>174</ele>
        <time>2018-11-07T05:51:53Z</time>
      </trkpt>
      <trkpt lat="50.58545" lon="5.14935">
        <ele>173</ele>
        <time>2018-11-07T05:52:53Z</time>
      </trkpt>
      <trkpt lat="50.58536" lon="5.14913">
        <ele>173</ele>
        <time>2018-11-07T05:53:53Z</time>
      </trkpt>
      <trkpt lat="50.58557" lon="5.14897">
        <ele>172</ele>
        <time>2018-11-07T05:54:53Z</time>
      </trkpt>
      <trkpt lat="50.58581" lon="5.14874">
        <ele>171</ele>
        <time>2018-11-07T05:55:53Z</time>
      </trkpt>
      <trkpt lat="50.5864" lon="5.14816">
        <ele>170</ele>
        <time>2018-11-07T05:56:53Z</time>
      </trkpt>
      <trkpt lat="50.58687" lon="5.14772">
        <ele>170</ele>
        <time>2018-11-07T05:57:53Z</time>
      </trkpt>
      <trkpt lat="50.58715" lon="5.14747">
        <ele>171</ele>
        <time>2018-11-07T05:58:53Z</time>
      </trkpt>
      <trkpt lat="50.58745" lon="5.14726">
        <ele>171</ele>
        <time>2018-11-07T05:59:53Z</time>
      </trkpt>
      <trkpt lat="50.58798" lon="5.14687">
        <ele>173</ele>
        <time>2018-11-07T06:00:53Z</time>
      </trkpt>
      <trkpt lat="50.58834" lon="5.14661">
        <ele>174</ele>
        <time>2018-11-07T06:01:53Z</time>
      </trkpt>
      <trkpt lat="50.58855" lon="5.14644">
        <ele>173</ele>
        <time>2018-11-07T06:02:53Z</time>
      </trkpt>
      <trkpt lat="50.58883" lon="5.14621">
        <ele>173</ele>
        <time>2018-11-07T06:03:53Z</time>
      </trkpt>
      <trkpt lat="50.58933" lon="5.14594">
        <ele>171</ele>
        <time>2018-11-07T06:04:53Z</time>
      </trkpt>
      <trkpt lat="50.58983" lon="5.14575">
        <ele>169</ele>
        <time>2018-11-07T06:05:53Z</time>
      </trkpt>
      <trkpt lat="50.59022" lon="5.14576">
        <ele>168</ele>
        <time>2018-11-07T06:06:53Z</time>
      </trkpt>
      <trkpt lat="50.59041" lon="5.14577">
        <ele>168</ele>
        <time>2018-11-07T06:07:53Z</time>
      </trkpt>
      <trkpt lat="50.59068" lon="5.14577">
        <ele>169</ele>
        <time>2018-11-07T06:08:53Z</time>
      </trkpt>
      <trkpt lat="50.59097" lon="5.14575">
        <ele>169</ele>
        <time>2018-11-07T06:09:53Z</time>
      </trkpt>
      <trkpt lat="50.59146" lon="5.14564">
        <ele>168</ele>
        <time>2018-11-07T06:10:53Z</time>
      </trkpt>
      <trkpt lat="50.59181" lon="5.14568">
        <ele>168</ele>
        <time>2018-11-07T06:11:53Z</time>
      </trkpt>
      <trkpt lat="50.59199" lon="5.14563">
        <ele>167</ele>
        <time>2018-11-07T06:12:53Z</time>
      </trkpt>
      <trkpt lat="50.59243" lon="5.14535">
        <ele>167</ele>
        <time>2018-11-07T06:13:53Z</time>
      </trkpt>
      <trkpt lat="50.59332" lon="5.14482">
        <ele>169</ele>
        <time>2018-11-07T06:14:53Z</time>
      </trkpt>
      <trkpt lat="50.59414" lon="5.14431">
        <ele>168</ele>
        <time>2018-11-07T06:15:53Z</time>
      </trkpt>
      <trkpt lat="50.59496" lon="5.1438">
        <ele>168</ele>
        <time>2018-11-07T06:16:53Z</time>
      </trkpt>
      <trkpt lat="50.5958" lon="5.14288">
        <ele>167</ele>
        <time>2018-11-07T06:17:53Z</time>
      </trkpt>
      <trkpt lat="50.59625" lon="5.14248">
        <ele>169</ele>
        <time>2018-11-07T06:18:53Z</time>
      </trkpt>
      <trkpt lat="50.5971" lon="5.14185">
        <ele>169</ele>
        <time>2018-11-07T06:19:53Z</time>
      </trkpt>
      <trkpt lat="50.59808" lon="5.14115">
        <ele>166</ele>
        <time>2018-11-07T06:20:53Z</time>
      </trkpt>
      <trkpt lat="50.59897" lon="5.14044">
        <ele>165</ele>
        <time>2018-11-07T06:21:53Z</time>
      </trkpt>
      <trkpt lat="50.59975" lon="5.13924">
        <ele>166</ele>
        <time>2018-11-07T06:22:53Z</time>
      </trkpt>
      <trkpt lat="50.60044" lon="5.13808">
        <ele>169</ele>
        <time>2018-11-07T06:23:53Z</time>
      </trkpt>
      <trkpt lat="50.60114" lon="5.1365">
        <ele>167</ele>
        <time>2018-11-07T06:24:53Z</time>
      </trkpt>
      <trkpt lat="50.6016" lon="5.13554">
        <ele>164</ele>
        <time>2018-11-07T06:25:53Z</time>
      </trkpt>
      <trkpt lat="50.60144" lon="5.13533">
        <ele>164</ele>
        <time>2018-11-07T06:26:53Z</time>
      </trkpt>
      <trkpt lat="50.60026" lon="5.13378">
        <ele>167</ele>
        <time>2018-11-07T06:27:53Z</time>
      </trkpt>
      <trkpt lat="50.59978" lon="5.13316">
        <ele>169</ele>
        <time>2018-11-07T06:28:53Z</time>
      </trkpt>
      <trkpt lat="50.59884" lon="5.13196">
        <ele>172</ele>
        <time>2018-11-07T06:29:53Z</time>
      </trkpt>
      <trkpt lat="50.59854" lon="5.13157">
        <ele>172</ele>
        <time>2018-11-07T06:30:53Z</time>
      </trkpt>
      <trkpt lat="50.59839" lon="5.13143">
        <ele>172</ele>
        <time>2018-11-07T06:31:53Z</time>
      </trkpt>
      <trkpt lat="50.59825" lon="5.13143">
        <ele>173</ele>
        <time>2018-11-07T06:32:53Z</time>
      </trkpt>
      <trkpt lat="50.59811" lon="5.13156">
        <ele>173</ele>
        <time>2018-11-07T06:33:53Z</time>
      </trkpt>
      <trkpt lat="50.59791" lon="5.13164">
        <ele>174</ele>
        <time>2018-11-07T06:34:53Z</time>
      </trkpt>
      <trkpt lat="50.5977" lon="5.13135">
        <ele>174</ele>
        <time>2018-11-07T06:35:53Z</time>
      </trkpt>
      <trkpt lat="50.59748" lon="5.13103">
        <ele>175</ele>
        <time>2018-11-07T06:36:53Z</time>
      </trkpt>
      <trkpt lat="50.59725" lon="5.13068">
        <ele>175</ele>
        <time>2018-11-07T06:37:53Z</time>
      </trkpt>
      <trkpt lat="50.59691" lon="5.12998">
        <ele>175</ele>
        <time>2018-11-07T06:38:53Z</time>
      </trkpt>
      <trkpt lat="50.59656" lon="5.12926">
        <ele>174</ele>
        <time>2018-11-07T06:39:53Z</time>
      </trkpt>
      <trkpt lat="50.5962" lon="5.12854">
        <ele>173</ele>
        <time>2018-11-07T06:40:53Z</time>
      </trkpt>
      <trkpt lat="50.59597" lon="5.12808">
        <ele>172</ele>
        <time>2018-11-07T06:41:53Z</time>
      </trkpt>
      <trkpt lat="50.59582" lon="5.12782">
        <ele>172</ele>
        <time>2018-11-07T06:42:53Z</time>
      </trkpt>
      <trkpt lat="50.59561" lon="5.12757">
        <ele>172</ele>
        <time>2018-11-07T06:43:53Z</time>
      </trkpt>
      <trkpt lat="50.5953" lon="5.12731">
        <ele>171</ele>
        <time>2018-11-07T06:44:53Z</time>
      </trkpt>
      <trkpt lat="50.59482" lon="5.12704">
        <ele>170</ele>
        <time>2018-11-07T06:45:53Z</time>
      </trkpt>
      <trkpt lat="50.59448" lon="5.12671">
        <ele>169</ele>
        <time>2018-11-07T06:46:53Z</time>
      </trkpt>
      <trkpt lat="50.5942" lon="5.12644">
        <ele>169</ele>
        <time>2018-11-07T06:47:53Z</time>
      </trkpt>
      <trkpt lat="50.5939" lon="5.12606">
        <ele>168</ele>
        <time>2018-11-07T06:48:53Z</time>
      </trkpt>
      <trkpt lat="50.59367" lon="5.12564">
        <ele>167</ele>
        <time>2018-11-07T06:49:53Z</time>
      </trkpt>
      <trkpt lat="50.59299" lon="5.12435">
        <ele>167</ele>
        <time>2018-11-07T06:50:53Z</time>
      </trkpt>
      <trkpt lat="50.59282" lon="5.12413">
        <ele>167</ele>
        <time>2018-11-07T06:51:53Z</time>
      </trkpt>
      <trkpt lat="50.59257" lon="5.12388">
        <ele>167</ele>
        <time>2018-11-07T06:52:53Z</time>
      </trkpt>
      <trkpt lat="50.5922" lon="5.12364">
        <ele>167</ele>
        <time>2018-11-07T06:53:53Z</time>
      </trkpt>
      <trkpt lat="50.5918" lon="5.12333">
        <ele>167</ele>
        <time>2018-11-07T06:54:53Z</time>
      </trkpt>
      <trkpt lat="50.59159" lon="5.12306">
        <ele>167</ele>
        <time>2018-11-07T06:55:53Z</time>
      </trkpt>
      <trkpt lat="50.59126" lon="5.12261">
        <ele>167</ele>
        <time>2018-11-07T06:56:53Z</time>
      </trkpt>
      <trkpt lat="50.59117" lon="5.12243">
        <ele>167</ele>
        <time>2018-11-07T06:57:53Z</time>
      </trkpt>
      <trkpt lat="50.59089" lon="5.12167">
        <ele>166</ele>
        <time>2018-11-07T06:58:53Z</time>
      </trkpt>
      <trkpt lat="50.59072" lon="5.12126">
        <ele>165</ele>
        <time>2018-11-07T06:59:53Z</time>
      </trkpt>
      <trkpt lat="50.59039" lon="5.12069">
        <ele>163</ele>
        <time>2018-11-07T07:00:53Z</time>
      </trkpt>
      <trkpt lat="50.59" lon="5.12004">
        <ele>160</ele>
        <time>2018-11-07T07:01:53Z</time>
      </trkpt>
      <trkpt lat="50.58975" lon="5.11962">
        <ele>160</ele>
        <time>2018-11-07T07:02:53Z</time>
      </trkpt>
      <trkpt lat="50.58976" lon="5.11932">
        <ele>160</ele>
        <time>2018-11-07T07:03:53Z</time>
      </trkpt>
      <trkpt lat="50.58974" lon="5.11869">
        <ele>158</ele>
        <time>2018-11-07T07:04:53Z</time>
      </trkpt>
      <trkpt lat="50.58969" lon="5.1185">
        <ele>158</ele>
        <time>2018-11-07T07:05:53Z</time>
      </trkpt>
      <trkpt lat="50.58946" lon="5.11808">
        <ele>155</ele>
        <time>2018-11-07T07:06:53Z</time>
      </trkpt>
      <trkpt lat="50.58921" lon="5.11772">
        <ele>153</ele>
        <time>2018-11-07T07:07:53Z</time>
      </trkpt>
      <trkpt lat="50.58892" lon="5.11742">
        <ele>151</ele>
        <time>2018-11-07T07:08:53Z</time>
      </trkpt>
      <trkpt lat="50.58879" lon="5.11732">
        <ele>151</ele>
        <time>2018-11-07T07:09:53Z</time>
      </trkpt>
      <trkpt lat="50.58854" lon="5.11717">
        <ele>150</ele>
        <time>2018-11-07T07:10:53Z</time>
      </trkpt>
      <trkpt lat="50.58833" lon="5.11705">
        <ele>149</ele>
        <time>2018-11-07T07:11:53Z</time>
      </trkpt>
      <trkpt lat="50.58767" lon="5.11677">
        <ele>149</ele>
        <time>2018-11-07T07:12:53Z</time>
      </trkpt>
      <trkpt lat="50.58756" lon="5.11673">
        <ele>148</ele>
        <time>2018-11-07T07:13:53Z</time>
      </trkpt>
      <trkpt lat="50.58724" lon="5.11664">
        <ele>148</ele>
        <time>2018-11-07T07:14:53Z</time>
      </trkpt>
      <trkpt lat="50.58702" lon="5.1166">
        <ele>148</ele>
        <time>2018-11-07T07:15:53Z</time>
      </trkpt>
      <trkpt lat="50.58673" lon="5.11656">
        <ele>148</ele>
        <time>2018-11-07T07:16:53Z</time>
      </trkpt>
      <trkpt lat="50.58663" lon="5.11658">
        <ele>147</ele>
        <time>2018-11-07T07:17:53Z</time>
      </trkpt>
      <trkpt lat="50.58643" lon="5.11663">
        <ele>145</ele>
        <time>2018-11-07T07:18:53Z</time>
      </trkpt>
      <trkpt lat="50.58622" lon="5.11676">
        <ele>143</ele>
        <time>2018-11-07T07:19:53Z</time>
      </trkpt>
      <trkpt lat="50.58595" lon="5.11691">
        <ele>141</ele>
        <time>2018-11-07T07:20:53Z</time>
      </trkpt>
      <trkpt lat="50.58587" lon="5.11695">
        <ele>140</ele>
        <time>2018-11-07T07:21:53Z</time>
      </trkpt>
      <trkpt lat="50.58559" lon="5.11698">
        <ele>140</ele>
        <time>2018-11-07T07:22:53Z</time>
      </trkpt>
      <trkpt lat="50.58521" lon="5.1166">
        <ele>138</ele>
        <time>2018-11-07T07:23:53Z</time>
      </trkpt>
      <trkpt lat="50.58475" lon="5.11613">
        <ele>139</ele>
        <time>2018-11-07T07:24:53Z</time>
      </trkpt>
      <trkpt lat="50.58436" lon="5.11573">
        <ele>139</ele>
        <time>2018-11-07T07:25:53Z</time>
      </trkpt>
      <trkpt lat="50.58415" lon="5.11554">
        <ele>139</ele>
        <time>2018-11-07T07:26:53Z</time>
      </trkpt>
      <trkpt lat="50.58369" lon="5.11535">
        <ele>137</ele>
        <time>2018-11-07T07:27:53Z</time>
      </trkpt>
      <trkpt lat="50.58327" lon="5.11518">
        <ele>135</ele>
        <time>2018-11-07T07:28:53Z</time>
      </trkpt>
      <trkpt lat="50.58286" lon="5.11516">
        <ele>133</ele>
        <time>2018-11-07T07:29:53Z</time>
      </trkpt>
      <trkpt lat="50.58231" lon="5.11513">
        <ele>130</ele>
        <time>2018-11-07T07:30:53Z</time>
      </trkpt>
      <trkpt lat="50.58151" lon="5.1151">
        <ele>125</ele>
        <time>2018-11-07T07:31:53Z</time>
      </trkpt>
      <trkpt lat="50.58122" lon="5.11594">
        <ele>128</ele>
        <time>2018-11-07T07:32:53Z</time>
      </trkpt>
      <trkpt lat="50.58094" lon="5.11678">
        <ele>131</ele>
        <time>2018-11-07T07:33:53Z</time>
      </trkpt>
      <trkpt lat="50.58026" lon="5.11925">
        <ele>135</ele>
        <time>2018-11-07T07:34:53Z</time>
      </trkpt>
      <trkpt lat="50.58015" lon="5.11963">
        <ele>134</ele>
        <time>2018-11-07T07:35:53Z</time>
      </trkpt>
      <trkpt lat="50.5801" lon="5.12">
        <ele>134</ele>
        <time>2018-11-07T07:36:53Z</time>
      </trkpt>
      <trkpt lat="50.5802" lon="5.12123">
        <ele>137</ele>
        <time>2018-11-07T07:37:53Z</time>
      </trkpt>
      <trkpt lat="50.58044" lon="5.12394">
        <ele>128</ele>
        <time>2018-11-07T07:38:53Z</time>
      </trkpt>
      <trkpt lat="50.58062" lon="5.12623">
        <ele>122</ele>
        <time>2018-11-07T07:39:53Z</time>
      </trkpt>
      <trkpt lat="50.58084" lon="5.12878">
        <ele>118</ele>
        <time>2018-11-07T07:40:53Z</time>
      </trkpt>
      <trkpt lat="50.58088" lon="5.12925">
        <ele>118</ele>
        <time>2018-11-07T07:41:53Z</time>
      </trkpt>
      <trkpt lat="50.58086" lon="5.12965">
        <ele>119</ele>
        <time>2018-11-07T07:42:53Z</time>
      </trkpt>
      <trkpt lat="50.58083" lon="5.13045">
        <ele>125</ele>
        <time>2018-11-07T07:43:53Z</time>
      </trkpt>
      <trkpt lat="50.58077" lon="5.1307">
        <ele>127</ele>
        <time>2018-11-07T07:44:53Z</time>
      </trkpt>
      <trkpt lat="50.5805" lon="5.13112">
        <ele>129</ele>
        <time>2018-11-07T07:45:53Z</time>
      </trkpt>
      <trkpt lat="50.57992" lon="5.13174">
        <ele>126</ele>
        <time>2018-11-07T07:46:53Z</time>
      </trkpt>
      <trkpt lat="50.57957" lon="5.13208">
        <ele>123</ele>
        <time>2018-11-07T07:47:53Z</time>
      </trkpt>
      <trkpt lat="50.57916" lon="5.13239">
        <ele>117</ele>
        <time>2018-11-07T07:48:53Z</time>
      </trkpt>
      <trkpt lat="50.57895" lon="5.1328">
        <ele>118</ele>
        <time>2018-11-07T07:49:53Z</time>
      </trkpt>
      <trkpt lat="50.57876" lon="5.13326">
        <ele>118</ele>
        <time>2018-11-07T07:50:53Z</time>
      </trkpt>
      <trkpt lat="50.57859" lon="5.13386">
        <ele>119</ele>
        <time>2018-11-07T07:51:53Z</time>
      </trkpt>
      <trkpt lat="50.57842" lon="5.13455">
        <ele>122</ele>
        <time>2018-11-07T07:52:53Z</time>
      </trkpt>
      <trkpt lat="50.57822" lon="5.13531">
        <ele>124</ele>
        <time>2018-11-07T07:53:53Z</time>
      </trkpt>
      <trkpt lat="50.57793" lon="5.13648">
        <ele>126</ele>
        <time>2018-11-07T07:54:53Z</time>
      </trkpt>
      <trkpt lat="50.57774" lon="5.13727">
        <ele>124</ele>
        <time>2018-11-07T07:55:53Z</time>
      </trkpt>
      <trkpt lat="50.57747" lon="5.13813">
        <ele>123</ele>
        <time>2018-11-07T07:56:53Z</time>
      </trkpt>
      <trkpt lat="50.57731" lon="5.13868">
        <ele>123</ele>
        <time>2018-11-07T07:57:53Z</time>
      </trkpt>
      <trkpt lat="50.57716" lon="5.13923">
        <ele>123</ele>
        <time>2018-11-07T07:58:53Z</time>
      </trkpt>
      <trkpt lat="50.57703" lon="5.1402">
        <ele>123</ele>
        <time>2018-11-07T07:59:53Z</time>
      </trkpt>
      <trkpt lat="50.57686" lon="5.14092">
        <ele>121</ele>
        <time>2018-11-07T08:00:53Z</time>
      </trkpt>
      <trkpt lat="50.57648" lon="5.14175">
        <ele>117</ele>
        <time>2018-11-07T08:01:53Z</time>
      </trkpt>
      <trkpt lat="50.57628" lon="5.14221">
        <ele>117</ele>
        <time>2018-11-07T08:02:53Z</time>
      </trkpt>
      <trkpt lat="50.5762" lon="5.14255">
        <ele>117</ele>
        <time>2018-11-07T08:03:53Z</time>
      </trkpt>
      <trkpt lat="50.57603" lon="5.14378">
        <ele>118</ele>
        <time>2018-11-07T08:04:53Z</time>
      </trkpt>
      <trkpt lat="50.57584" lon="5.1447">
        <ele>115</ele>
        <time>2018-11-07T08:05:53Z</time>
      </trkpt>
      <trkpt lat="50.57573" lon="5.14551">
        <ele>112</ele>
        <time>2018-11-07T08:06:53Z</time>
      </trkpt>
      <trkpt lat="50.57568" lon="5.14609">
        <ele>111</ele>
        <time>2018-11-07T08:07:53Z</time>
      </trkpt>
      <trkpt lat="50.57566" lon="5.1468">
        <ele>112</ele>
        <time>2018-11-07T08:08:53Z</time>
      </trkpt>
      <trkpt lat="50.57565" lon="5.14715">
        <ele>112</ele>
        <time>2018-11-07T08:09:53Z</time>
      </trkpt>
      <trkpt lat="50.57559" lon="5.14791">
        <ele>111</ele>
        <time>2018-11-07T08:10:53Z</time>
      </trkpt>
      <trkpt lat="50.57554" lon="5.14854">
        <ele>111</ele>
        <time>2018-11-07T08:11:53Z</time>
      </trkpt>
      <trkpt lat="50.57524" lon="5.14957">
        <ele>111</ele>
        <time>2018-11-07T08:12:53Z</time>
      </trkpt>
      <trkpt lat="50.57519" lon="5.14986">
        <ele>112</ele>
        <time>2018-11-07T08:13:53Z</time>
      </trkpt>
      <trkpt lat="50.57512" lon="5.15044">
        <ele>112</ele>
        <time>2018-11-07T08:14:53Z</time>
      </trkpt>
      <trkpt lat="50.57509" lon="5.15076">
        <ele>112</ele>
        <time>2018-11-07T08:15:53Z</time>
      </trkpt>
      <trkpt lat="50.57501" lon="5.15111">
        <ele>111</ele>
        <time>2018-11-07T08:16:53Z</time>
      </trkpt>
      <trkpt lat="50.57461" lon="5.15231">
        <ele>115</ele>
        <time>2018-11-07T08:17:53Z</time>
      </trkpt>
      <trkpt lat="50.5744" lon="5.15269">
        <ele>113</ele>
        <time>2018-11-07T08:18:53Z</time>
      </trkpt>
      <trkpt lat="50.57412" lon="5.15324">
        <ele>112</ele>
        <time>2018-11-07T08:19:53Z</time>
      </trkpt>
      <trkpt lat="50.5739" lon="5.15379">
        <ele>115</ele>
        <time>2018-11-07T08:20:53Z</time>
      </trkpt>
      <trkpt lat="50.57363" lon="5.15445">
        <ele>114</ele>
        <time>2018-11-07T08:21:53Z</time>
      </trkpt>
      <trkpt lat="50.57346" lon="5.15525">
        <ele>113</ele>
        <time>2018-11-07T08:22:53Z</time>
      </trkpt>
      <trkpt lat="50.57333" lon="5.15583">
        <ele>114</ele>
        <time>2018-11-07T08:23:53Z</time>
      </trkpt>
      <trkpt lat="50.57315" lon="5.15668">
        <ele>118</ele>
        <time>2018-11-07T08:24:53Z</time>
      </trkpt>
      <trkpt lat="50.5729" lon="5.15759">
        <ele>118</ele>
        <time>2018-11-07T08:25:53Z</time>
      </trkpt>
      <trkpt lat="50.57271" lon="5.1583">
        <ele>115</ele>
        <time>2018-11-07T08:26:53Z</time>
      </trkpt>
      <trkpt lat="50.57243" lon="5.15962">
        <ele>111</ele>
        <time>2018-11-07T08:27:53Z</time>
      </trkpt>
      <trkpt lat="50.57236" lon="5.15993">
        <ele>110</ele>
        <time>2018-11-07T08:28:53Z</time>
      </trkpt>
      <trkpt lat="50.57234" lon="5.16021">
        <ele>110</ele>
        <time>2018-11-07T08:29:53Z</time>
      </trkpt>
      <trkpt lat="50.57233" lon="5.16049">
        <ele>110</ele>
        <time>2018-11-07T08:30:53Z</time>
      </trkpt>
      <trkpt lat="50.57242" lon="5.16106">
        <ele>109</ele>
        <time>2018-11-07T08:31:53Z</time>
      </trkpt>
      <trkpt lat="50.57245" lon="5.16147">
        <ele>108</ele>
        <time>2018-11-07T08:32:53Z</time>
      </trkpt>
      <trkpt lat="50.57241" lon="5.16177">
        <ele>108</ele>
        <time>2018-11-07T08:33:53Z</time>
      </trkpt>
      <trkpt lat="50.5723" lon="5.16205">
        <ele>107</ele>
        <time>2018-11-07T08:34:53Z</time>
      </trkpt>
      <trkpt lat="50.57216" lon="5.16227">
        <ele>107</ele>
        <time>2018-11-07T08:35:53Z</time>
      </trkpt>
      <trkpt lat="50.57187" lon="5.16271">
        <ele>107</ele>
        <time>2018-11-07T08:36:53Z</time>
      </trkpt>
      <trkpt lat="50.57161" lon="5.16312">
        <ele>105</ele>
        <time>2018-11-07T08:37:53Z</time>
      </trkpt>
      <trkpt lat="50.57137" lon="5.16343">
        <ele>105</ele>
        <time>2018-11-07T08:38:53Z</time>
      </trkpt>
      <trkpt lat="50.57107" lon="5.16343">
        <ele>109</ele>
        <time>2018-11-07T08:39:53Z</time>
      </trkpt>
      <trkpt lat="50.57066" lon="5.16329">
        <ele>115</ele>
        <time>2018-11-07T08:40:53Z</time>
      </trkpt>
      <trkpt lat="50.57024" lon="5.16321">
        <ele>119</ele>
        <time>2018-11-07T08:41:53Z</time>
      </trkpt>
      <trkpt lat="50.56986" lon="5.16331">
        <ele>118</ele>
        <time>2018-11-07T08:42:53Z</time>
      </trkpt>
      <trkpt lat="50.56942" lon="5.16358">
        <ele>115</ele>
        <time>2018-11-07T08:43:53Z</time>
      </trkpt>
      <trkpt lat="50.56891" lon="5.16403">
        <ele>106</ele>
        <time>2018-11-07T08:44:53Z</time>
      </trkpt>
      <trkpt lat="50.56841" lon="5.16447">
        <ele>103</ele>
        <time>2018-11-07T08:45:53Z</time>
      </trkpt>
      <trkpt lat="50.56808" lon="5.16476">
        <ele>101</ele>
        <time>2018-11-07T08:46:53Z</time>
      </trkpt>
      <trkpt lat="50.56756" lon="5.16526">
        <ele>100</ele>
        <time>2018-11-07T08:47:53Z</time>
      </trkpt>
      <trkpt lat="50.56727" lon="5.16555">
        <ele>101</ele>
        <time>2018-11-07T08:48:53Z</time>
      </trkpt>
      <trkpt lat="50.56726" lon="5.16602">
        <ele>99</ele>
        <time>2018-11-07T08:49:53Z</time>
      </trkpt>
      <trkpt lat="50.56723" lon="5.16646">
        <ele>98</ele>
        <time>2018-11-07T08:50:53Z</time>
      </trkpt>
      <trkpt lat="50.56725" lon="5.16673">
        <ele>98</ele>
        <time>2018-11-07T08:51:53Z</time>
      </trkpt>
      <trkpt lat="50.56736" lon="5.1671">
        <ele>97</ele>
        <time>2018-11-07T08:52:53Z</time>
      </trkpt>
      <trkpt lat="50.56759" lon="5.16777">
        <ele>99</ele>
        <time>2018-11-07T08:53:53Z</time>
      </trkpt>
      <trkpt lat="50.56769" lon="5.16812">
        <ele>102</ele>
        <time>2018-11-07T08:54:53Z</time>
      </trkpt>
      <trkpt lat="50.5677" lon="5.16826">
        <ele>103</ele>
        <time>2018-11-07T08:55:53Z</time>
      </trkpt>
      <trkpt lat="50.56759" lon="5.16838">
        <ele>103</ele>
        <time>2018-11-07T08:56:53Z</time>
      </trkpt>
      <trkpt lat="50.56727" lon="5.16861">
        <ele>104</ele>
        <time>2018-11-07T08:57:53Z</time>
      </trkpt>
      <trkpt lat="50.56704" lon="5.16883">
        <ele>105</ele>
        <time>2018-11-07T08:58:53Z</time>
      </trkpt>
      <trkpt lat="50.56679" lon="5.16914">
        <ele>104</ele>
        <time>2018-11-07T08:59:53Z</time>
      </trkpt>
      <trkpt lat="50.56647" lon="5.16979">
        <ele>108</ele>
        <time>2018-11-07T09:00:53Z</time>
      </trkpt>
      <trkpt lat="50.56631" lon="5.17042">
        <ele>111</ele>
        <time>2018-11-07T09:01:53Z</time>
      </trkpt>
      <trkpt lat="50.5662" lon="5.17094">
        <ele>112</ele>
        <time>2018-11-07T09:02:53Z</time>
      </trkpt>
      <trkpt lat="50.56614" lon="5.17151">
        <ele>113</ele>
        <time>2018-11-07T09:03:53Z</time>
      </trkpt>
      <trkpt lat="50.5661" lon="5.17203">
        <ele>115</ele>
        <time>2018-11-07T09:04:53Z</time>
      </trkpt>
      <trkpt lat="50.56606" lon="5.17267">
        <ele>117</ele>
        <time>2018-11-07T09:05:53Z</time>
      </trkpt>
      <trkpt lat="50.566" lon="5.17323">
        <ele>115</ele>
        <time>2018-11-07T09:06:53Z</time>
      </trkpt>
      <trkpt lat="50.56583" lon="5.17417">
        <ele>108</ele>
        <time>2018-11-07T09:07:53Z</time>
      </trkpt>
      <trkpt lat="50.56569" lon="5.17482">
        <ele>107</ele>
        <time>2018-11-07T09:08:53Z</time>
      </trkpt>
      <trkpt lat="50.56545" lon="5.17558">
        <ele>105</ele>
        <time>2018-11-07T09:09:53Z</time>
      </trkpt>
      <trkpt lat="50.56535" lon="5.17583">
        <ele>103</ele>
        <time>2018-11-07T09:10:53Z</time>
      </trkpt>
      <trkpt lat="50.56521" lon="5.17614">
        <ele>102</ele>
        <time>2018-11-07T09:11:53Z</time>
      </trkpt>
      <trkpt lat="50.56474" lon="5.17706">
        <ele>100</ele>
        <time>2018-11-07T09:12:53Z</time>
      </trkpt>
      <trkpt lat="50.56451" lon="5.17747">
        <ele>101</ele>
        <time>2018-11-07T09:13:53Z</time>
      </trkpt>
      <trkpt lat="50.56427" lon="5.17762">
        <ele>99</ele>
        <time>2018-11-07T09:14:53Z</time>
      </trkpt>
      <trkpt lat="50.56418" lon="5.17764">
        <ele>97</ele>
        <time>2018-11-07T09:15:53Z</time>
      </trkpt>
      <trkpt lat="50.56394" lon="5.17764">
        <ele>97</ele>
        <time>2018-11-07T09:16:53Z</time>
      </trkpt>
      <trkpt lat="50.56371" lon="5.17758">
        <ele>96</ele>
        <time>2018-11-07T09:17:53Z</time>
      </trkpt>
      <trkpt lat="50.56346" lon="5.17746">
        <ele>94</ele>
        <time>2018-11-07T09:18:53Z</time>
      </trkpt>
      <trkpt lat="50.56323" lon="5.17724">
        <ele>95</ele>
        <time>2018-11-07T09:19:53Z</time>
      </trkpt>
      <trkpt lat="50.56266" lon="5.1765">
        <ele>97</ele>
        <time>2018-11-07T09:20:53Z</time>
      </trkpt>
      <trkpt lat="50.56261" lon="5.17634">
        <ele>97</ele>
        <time>2018-11-07T09:21:53Z</time>
      </trkpt>
      <trkpt lat="50.56253" lon="5.17616">
        <ele>97</ele>
        <time>2018-11-07T09:22:53Z</time>
      </trkpt>
      <trkpt lat="50.56243" lon="5.17599">
        <ele>97</ele>
        <time>2018-11-07T09:23:53Z</time>
      </trkpt>
      <trkpt lat="50.56218" lon="5.17577">
        <ele>98</ele>
        <time>2018-11-07T09:24:53Z</time>
      </trkpt>
      <trkpt lat="50.56206" lon="5.17564">
        <ele>99</ele>
        <time>2018-11-07T09:25:53Z</time>
      </trkpt>
      <trkpt lat="50.56186" lon="5.17542">
        <ele>100</ele>
        <time>2018-11-07T09:26:53Z</time>
      </trkpt>
      <trkpt lat="50.56172" lon="5.17529">
        <ele>101</ele>
        <time>2018-11-07T09:27:53Z</time>
      </trkpt>
      <trkpt lat="50.56147" lon="5.17521">
        <ele>100</ele>
        <time>2018-11-07T09:28:53Z</time>
      </trkpt>
      <trkpt lat="50.56119" lon="5.1753">
        <ele>99</ele>
        <time>2018-11-07T09:29:53Z</time>
      </trkpt>
      <trkpt lat="50.56082" lon="5.17586">
        <ele>97</ele>
        <time>2018-11-07T09:30:53Z</time>
      </trkpt>
      <trkpt lat="50.56016" lon="5.17625">
        <ele>99</ele>
        <time>2018-11-07T09:31:53Z</time>
      </trkpt>
      <trkpt lat="50.55972" lon="5.17652">
        <ele>97</ele>
        <time>2018-11-07T09:32:53Z</time>
      </trkpt>
      <trkpt lat="50.55939" lon="5.17662">
        <ele>94</ele>
        <time>2018-11-07T09:33:53Z</time>
      </trkpt>
      <trkpt lat="50.55915" lon="5.17659">
        <ele>93</ele>
        <time>2018-11-07T09:34:53Z</time>
      </trkpt>
      <trkpt lat="50.55864" lon="5.17633">
        <ele>96</ele>
        <time>2018-11-07T09:35:53Z</time>
      </trkpt>
      <trkpt lat="50.5584" lon="5.1763">
        <ele>97</ele>
        <time>2018-11-07T09:36:53Z</time>
      </trkpt>
      <trkpt lat="50.55792" lon="5.1764">
        <ele>98</ele>
        <time>2018-11-07T09:37:53Z</time>
      </trkpt>
      <trkpt lat="50.55766" lon="5.17651">
        <ele>98</ele>
        <time>2018-11-07T09:38:53Z</time>
      </trkpt>
      <trkpt lat="50.55742" lon="5.17685">
        <ele>97</ele>
        <time>2018-11-07T09:39:53Z</time>
      </trkpt>
      <trkpt lat="50.5572" lon="5.17745">
        <ele>95</ele>
        <time>2018-11-07T09:40:53Z</time>
      </trkpt>
      <trkpt lat="50.55703" lon="5.17769">
        <ele>94</ele>
        <time>2018-11-07T09:41:53Z</time>
      </trkpt>
      <trkpt lat="50.55663" lon="5.17807">
        <ele>93</ele>
        <time>2018-11-07T09:42:53Z</time>
      </trkpt>
      <trkpt lat="50.5562" lon="5.17846">
        <ele>95</ele>
        <time>2018-11-07T09:43:53Z</time>
      </trkpt>
      <trkpt lat="50.55596" lon="5.17865">
        <ele>95</ele>
        <time>2018-11-07T09:44:53Z</time>
      </trkpt>
      <trkpt lat="50.55514" lon="5.17926">
        <ele>92</ele>
        <time>2018-11-07T09:45:53Z</time>
      </trkpt>
      <trkpt lat="50.55495" lon="5.17939">
        <ele>92</ele>
        <time>2018-11-07T09:46:53Z</time>
      </trkpt>
      <trkpt lat="50.55492" lon="5.1795">
        <ele>93</ele>
        <time>2018-11-07T09:47:53Z</time>
      </trkpt>
      <trkpt lat="50.55487" lon="5.17984">
        <ele>94</ele>
        <time>2018-11-07T09:48:53Z</time>
      </trkpt>
      <trkpt lat="50.55481" lon="5.17999">
        <ele>94</ele>
        <time>2018-11-07T09:49:53Z</time>
      </trkpt>
      <trkpt lat="50.55455" lon="5.18036">
        <ele>96</ele>
        <time>2018-11-07T09:50:53Z</time>
      </trkpt>
      <trkpt lat="50.5542" lon="5.18092">
        <ele>92</ele>
        <time>2018-11-07T09:51:53Z</time>
      </trkpt>
      <trkpt lat="50.55376" lon="5.18163">
        <ele>93</ele>
        <time>2018-11-07T09:52:53Z</time>
      </trkpt>
      <trkpt lat="50.55343" lon="5.18199">
        <ele>91</ele>
        <time>2018-11-07T09:53:53Z</time>
      </trkpt>
      <trkpt lat="50.55294" lon="5.18244">
        <ele>90</ele>
        <time>2018-11-07T09:54:53Z</time>
      </trkpt>
      <trkpt lat="50.55226" lon="5.18306">
        <ele>87</ele>
        <time>2018-11-07T09:55:53Z</time>
      </trkpt>
      <trkpt lat="50.55199" lon="5.18329">
        <ele>86</ele>
        <time>2018-11-07T09:56:53Z</time>
      </trkpt>
      <trkpt lat="50.55174" lon="5.18355">
        <ele>85</ele>
        <time>2018-11-07T09:57:53Z</time>
      </trkpt>
      <trkpt lat="50.55152" lon="5.18388">
        <ele>85</ele>
        <time>2018-11-07T09:58:53Z</time>
      </trkpt>
      <trkpt lat="50.55136" lon="5.18418">
        <ele>85</ele>
        <time>2018-11-07T09:59:53Z</time>
      </trkpt>
      <trkpt lat="50.55128" lon="5.18435">
        <ele>85</ele>
        <time>2018-11-07T10:00:53Z</time>
      </trkpt>
      <trkpt lat="50.55121" lon="5.18474">
        <ele>85</ele>
        <time>2018-11-07T10:01:53Z</time>
      </trkpt>
      <trkpt lat="50.5511" lon="5.18556">
        <ele>86</ele>
        <time>2018-11-07T10:02:53Z</time>
      </trkpt>
      <trkpt lat="50.55103" lon="5.1861">
        <ele>87</ele>
        <time>2018-11-07T10:03:53Z</time>
      </trkpt>
      <trkpt lat="50.55096" lon="5.18666">
        <ele>89</ele>
        <time>2018-11-07T10:04:53Z</time>
      </trkpt>
      <trkpt lat="50.55081" lon="5.18741">
        <ele>89</ele>
        <time>2018-11-07T10:05:53Z</time>
      </trkpt>
      <trkpt lat="50.5507" lon="5.18773">
        <ele>88</ele>
        <time>2018-11-07T10:06:53Z</time>
      </trkpt>
      <trkpt lat="50.55056" lon="5.18812">
        <ele>87</ele>
        <time>2018-11-07T10:07:53Z</time>
      </trkpt>
      <trkpt lat="50.5504" lon="5.18871">
        <ele>86</ele>
        <time>2018-11-07T10:08:53Z</time>
      </trkpt>
      <trkpt lat="50.55027" lon="5.18911">
        <ele>86</ele>
        <time>2018-11-07T10:09:53Z</time>
      </trkpt>
      <trkpt lat="50.55015" lon="5.18938">
        <ele>87</ele>
        <time>2018-11-07T10:10:53Z</time>
      </trkpt>
      <trkpt lat="50.54999" lon="5.1897">
        <ele>88</ele>
        <time>2018-11-07T10:11:53Z</time>
      </trkpt>
      <trkpt lat="50.54974" lon="5.19039">
        <ele>91</ele>
        <time>2018-11-07T10:12:53Z</time>
      </trkpt>
      <trkpt lat="50.54959" lon="5.19098">
        <ele>91</ele>
        <time>2018-11-07T10:13:53Z</time>
      </trkpt>
      <trkpt lat="50.54951" lon="5.19133">
        <ele>90</ele>
        <time>2018-11-07T10:14:53Z</time>
      </trkpt>
      <trkpt lat="50.54949" lon="5.19167">
        <ele>90</ele>
        <time>2018-11-07T10:15:53Z</time>
      </trkpt>
      <trkpt lat="50.54951" lon="5.19193">
        <ele>89</ele>
        <time>2018-11-07T10:16:53Z</time>
      </trkpt>
      <trkpt lat="50.54961" lon="5.19238">
        <ele>89</ele>
        <time>2018-11-07T10:17:53Z</time>
      </trkpt>
      <trkpt lat="50.54979" lon="5.19308">
        <ele>88</ele>
        <time>2018-11-07T10:18:53Z</time>
      </trkpt>
      <trkpt lat="50.5499" lon="5.19335">
        <ele>86</ele>
        <time>2018-11-07T10:19:53Z</time>
      </trkpt>
      <trkpt lat="50.55065" lon="5.19487">
        <ele>83</ele>
        <time>2018-11-07T10:20:53Z</time>
      </trkpt>
      <trkpt lat="50.55124" lon="5.19609">
        <ele>85</ele>
        <time>2018-11-07T10:21:53Z</time>
      </trkpt>
      <trkpt lat="50.55223" lon="5.19812">
        <ele>84</ele>
        <time>2018-11-07T10:22:53Z</time>
      </trkpt>
      <trkpt lat="50.55247" lon="5.19861">
        <ele>83</ele>
        <time>2018-11-07T10:23:53Z</time>
      </trkpt>
      <trkpt lat="50.55257" lon="5.19887">
        <ele>83</ele>
        <time>2018-11-07T10:24:53Z</time>
      </trkpt>
      <trkpt lat="50.55264" lon="5.19919">
        <ele>84</ele>
        <time>2018-11-07T10:25:53Z</time>
      </trkpt>
      <trkpt lat="50.55282" lon="5.19995">
        <ele>86</ele>
        <time>2018-11-07T10:26:53Z</time>
      </trkpt>
      <trkpt lat="50.55319" lon="5.2016">
        <ele>86</ele>
        <time>2018-11-07T10:27:53Z</time>
      </trkpt>
      <trkpt lat="50.55336" lon="5.20233">
        <ele>84</ele>
        <time>2018-11-07T10:28:53Z</time>
      </trkpt>
      <trkpt lat="50.55359" lon="5.20317">
        <ele>86</ele>
        <time>2018-11-07T10:29:53Z</time>
      </trkpt>
      <trkpt lat="50.554" lon="5.20467">
        <ele>84</ele>
        <time>2018-11-07T10:30:53Z</time>
      </trkpt>
      <trkpt lat="50.55455" lon="5.20673">
        <ele>87</ele>
        <time>2018-11-07T10:31:53Z</time>
      </trkpt>
      <trkpt lat="50.55459" lon="5.20722">
        <ele>87</ele>
        <time>2018-11-07T10:32:53Z</time>
      </trkpt>
      <trkpt lat="50.55455" lon="5.20794">
        <ele>86</ele>
        <time>2018-11-07T10:33:53Z</time>
      </trkpt>
      <trkpt lat="50.5545" lon="5.2088">
        <ele>85</ele>
        <time>2018-11-07T10:34:53Z</time>
      </trkpt>
      <trkpt lat="50.55448" lon="5.20941">
        <ele>87</ele>
        <time>2018-11-07T10:35:53Z</time>
      </trkpt>
      <trkpt lat="50.55438" lon="5.2098">
        <ele>87</ele>
        <time>2018-11-07T10:36:53Z</time>
      </trkpt>
      <trkpt lat="50.55419" lon="5.21017">
        <ele>85</ele>
        <time>2018-11-07T10:37:53Z</time>
      </trkpt>
      <trkpt lat="50.55258" lon="5.21299">
        <ele>83</ele>
        <time>2018-11-07T10:38:53Z</time>
      </trkpt>
      <trkpt lat="50.55164" lon="5.2146">
        <ele>84</ele>
        <time>2018-11-07T10:39:53Z</time>
      </trkpt>
      <trkpt lat="50.55126" lon="5.21523">
        <ele>85</ele>
        <time>2018-11-07T10:40:53Z</time>
      </trkpt>
      <trkpt lat="50.55121" lon="5.21532">
        <ele>85</ele>
        <time>2018-11-07T10:41:53Z</time>
      </trkpt>
      <trkpt lat="50.5508" lon="5.21589">
        <ele>82</ele>
        <time>2018-11-07T10:42:53Z</time>
      </trkpt>
      <trkpt lat="50.55036" lon="5.21647">
        <ele>85</ele>
        <time>2018-11-07T10:43:53Z</time>
      </trkpt>
      <trkpt lat="50.55014" lon="5.21677">
        <ele>85</ele>
        <time>2018-11-07T10:44:53Z</time>
      </trkpt>
      <trkpt lat="50.54968" lon="5.2174">
        <ele>84</ele>
        <time>2018-11-07T10:45:53Z</time>
      </trkpt>
      <trkpt lat="50.54962" lon="5.21761">
        <ele>84</ele>
        <time>2018-11-07T10:46:53Z</time>
      </trkpt>
      <trkpt lat="50.5496" lon="5.21794">
        <ele>85</ele>
        <time>2018-11-07T10:47:53Z</time>
      </trkpt>
      <trkpt lat="50.54957" lon="5.21871">
        <ele>87</ele>
        <time>2018-11-07T10:48:53Z</time>
      </trkpt>
      <trkpt lat="50.54951" lon="5.21913">
        <ele>87</ele>
        <time>2018-11-07T10:49:53Z</time>
      </trkpt>
      <trkpt lat="50.54933" lon="5.21961">
        <ele>85</ele>
        <time>2018-11-07T10:50:53Z</time>
      </trkpt>
      <trkpt lat="50.54845" lon="5.22162">
        <ele>81</ele>
        <time>2018-11-07T10:51:53Z</time>
      </trkpt>
      <trkpt lat="50.54827" lon="5.22204">
        <ele>82</ele>
        <time>2018-11-07T10:52:53Z</time>
      </trkpt>
      <trkpt lat="50.54811" lon="5.22242">
        <ele>82</ele>
        <time>2018-11-07T10:53:53Z</time>
      </trkpt>
      <trkpt lat="50.54803" lon="5.22252">
        <ele>82</ele>
        <time>2018-11-07T10:54:53Z</time>
      </trkpt>
      <trkpt lat="50.54735" lon="5.22238">
        <ele>79</ele>
        <time>2018-11-07T10:55:53Z</time>
      </trkpt>
      <trkpt lat="50.54637" lon="5.22217">
        <ele>76</ele>
        <time>2018-11-07T10:56:53Z</time>
      </trkpt>
      <trkpt lat="50.54529" lon="5.22195">
        <ele>75</ele>
        <time>2018-11-07T10:57:53Z</time>
      </trkpt>
      <trkpt lat="50.54441" lon="5.22177">
        <ele>75</ele>
        <time>2018-11-07T10:58:53Z</time>
      </trkpt>
      <trkpt lat="50.54384" lon="5.22167">
        <ele>74</ele>
        <time>2018-11-07T10:59:53Z</time>
      </trkpt>
      <trkpt lat="50.54239" lon="5.22137">
        <ele>73</ele>
        <time>2018-11-07T11:00:53Z</time>
      </trkpt>
      <trkpt lat="50.54184" lon="5.22125">
        <ele>73</ele>
        <time>2018-11-07T11:01:53Z</time>
      </trkpt>
      <trkpt lat="50.53953" lon="5.22077">
        <ele>72</ele>
        <time>2018-11-07T11:02:53Z</time>
      </trkpt>
      <trkpt lat="50.5389" lon="5.22064">
        <ele>72</ele>
        <time>2018-11-07T11:03:53Z</time>
      </trkpt>
      <trkpt lat="50.53775" lon="5.22039">
        <ele>72</ele>
        <time>2018-11-07T11:04:53Z</time>
      </trkpt>
      <trkpt lat="50.53741" lon="5.22031">
        <ele>71</ele>
        <time>2018-11-07T11:05:53Z</time>
      </trkpt>
      <trkpt lat="50.53628" lon="5.22008">
        <ele>72</ele>
        <time>2018-11-07T11:06:53Z</time>
      </trkpt>
      <trkpt lat="50.53523" lon="5.21984">
        <ele>72</ele>
        <time>2018-11-07T11:07:53Z</time>
      </trkpt>
      <trkpt lat="50.535" lon="5.21978">
        <ele>71</ele>
        <time>2018-11-07T11:08:53Z</time>
      </trkpt>
      <trkpt lat="50.53449" lon="5.21968">
        <ele>71</ele>
        <time>2018-11-07T11:09:53Z</time>
      </trkpt>
      <trkpt lat="50.5342" lon="5.21962">
        <ele>71</ele>
        <time>2018-11-07T11:10:53Z</time>
      </trkpt>
      <trkpt lat="50.53385" lon="5.21956">
        <ele>72</ele>
        <time>2018-11-07T11:11:53Z</time>
      </trkpt>
      <trkpt lat="50.53328" lon="5.21946">
        <ele>72</ele>
        <time>2018-11-07T11:12:53Z</time>
      </trkpt>
      <trkpt lat="50.53208" lon="5.21923">
        <ele>74</ele>
        <time>2018-11-07T11:13:53Z</time>
      </trkpt>
      <trkpt lat="50.53153" lon="5.21912">
        <ele>74</ele>
        <time>2018-11-07T11:14:53Z</time>
      </trkpt>
      <trkpt lat="50.53123" lon="5.21916">
        <ele>75</ele>
        <time>2018-11-07T11:15:53Z</time>
      </trkpt>
      <trkpt lat="50.53107" lon="5.2192">
        <ele>76</ele>
        <time>2018-11-07T11:16:53Z</time>
      </trkpt>
      <trkpt lat="50.5308" lon="5.21938">
        <ele>78</ele>
        <time>2018-11-07T11:17:53Z</time>
      </trkpt>
      <trkpt lat="50.53054" lon="5.21963">
        <ele>79</ele>
        <time>2018-11-07T11:18:53Z</time>
      </trkpt>
      <trkpt lat="50.53002" lon="5.22014">
        <ele>77</ele>
        <time>2018-11-07T11:19:53Z</time>
      </trkpt>
      <trkpt lat="50.52977" lon="5.22038">
        <ele>77</ele>
        <time>2018-11-07T11:20:53Z</time>
      </trkpt>
      <trkpt lat="50.52954" lon="5.22073">
        <ele>77</ele>
        <time>2018-11-07T11:21:53Z</time>
      </trkpt>
      <trkpt lat="50.52911" lon="5.22138">
        <ele>80</ele>
        <time>2018-11-07T11:22:53Z</time>
      </trkpt>
      <trkpt lat="50.52868" lon="5.22206">
        <ele>83</ele>
        <time>2018-11-07T11:23:53Z</time>
      </trkpt>
      <trkpt lat="50.52852" lon="5.22226">
        <ele>83</ele>
        <time>2018-11-07T11:24:53Z</time>
      </trkpt>
      <trkpt lat="50.52838" lon="5.2224">
        <ele>81</ele>
        <time>2018-11-07T11:25:53Z</time>
      </trkpt>
      <trkpt lat="50.52821" lon="5.22253">
        <ele>80</ele>
        <time>2018-11-07T11:26:53Z</time>
      </trkpt>
      <trkpt lat="50.52789" lon="5.2229">
        <ele>81</ele>
        <time>2018-11-07T11:27:53Z</time>
      </trkpt>
      <trkpt lat="50.5274" lon="5.22346">
        <ele>78</ele>
        <time>2018-11-07T11:28:53Z</time>
      </trkpt>
      <trkpt lat="50.52728" lon="5.22359">
        <ele>79</ele>
        <time>2018-11-07T11:29:53Z</time>
      </trkpt>
      <trkpt lat="50.52713" lon="5.22337">
        <ele>75</ele>
        <time>2018-11-07T11:30:53Z</time>
      </trkpt>
      <trkpt lat="50.52703" lon="5.22306">
        <ele>74</ele>
        <time>2018-11-07T11:31:53Z</time>
      </trkpt>
      <trkpt lat="50.52691" lon="5.2227">
        <ele>73</ele>
        <time>2018-11-07T11:32:53Z</time>
      </trkpt>
      <trkpt lat="50.52677" lon="5.22247">
        <ele>72</ele>
        <time>2018-11-07T11:33:53Z</time>
      </trkpt>
      <trkpt lat="50.52667" lon="5.2225">
        <ele>72</ele>
        <time>2018-11-07T11:34:53Z</time>
      </trkpt>
      <trkpt lat="50.52637" lon="5.22305">
        <ele>72</ele>
        <time>2018-11-07T11:35:53Z</time>
      </trkpt>
      <trkpt lat="50.52617" lon="5.22341">
        <ele>72</ele>
        <time>2018-11-07T11:36:53Z</time>
      </trkpt>
      <trkpt lat="50.52607" lon="5.22341">
        <ele>72</ele>
        <time>2018-11-07T11:37:53Z</time>
      </trkpt>
      <trkpt lat="50.52602" lon="5.22333">
        <ele>71</ele>
        <time>2018-11-07T11:38:53Z</time>
      </trkpt>
      <trkpt lat="50.52587" lon="5.22362">
        <ele>72</ele>
        <time>2018-11-07T11:39:53Z</time>
      </trkpt>
      <trkpt lat="50.5254" lon="5.22438">
        <ele>72</ele>
        <time>2018-11-07T11:40:53Z</time>
      </trkpt>
      <trkpt lat="50.52498" lon="5.22493">
        <ele>69</ele>
        <time>2018-11-07T11:41:53Z</time>
      </trkpt>
      <trkpt lat="50.52452" lon="5.22558">
        <ele>72</ele>
        <time>2018-11-07T11:42:53Z</time>
      </trkpt>
      <trkpt lat="50.52422" lon="5.22583">
        <ele>73</ele>
        <time>2018-11-07T11:43:53Z</time>
      </trkpt>
      <trkpt lat="50.52386" lon="5.22602">
        <ele>74</ele>
        <time>2018-11-07T11:44:53Z</time>
      </trkpt>
      <trkpt lat="50.52345" lon="5.22611">
        <ele>74</ele>
        <time>2018-11-07T11:45:53Z</time>
      </trkpt>
      <trkpt lat="50.52301" lon="5.22612">
        <ele>73</ele>
        <time>2018-11-07T11:46:53Z</time>
      </trkpt>
      <trkpt lat="50.5227" lon="5.22605">
        <ele>72</ele>
        <time>2018-11-07T11:47:53Z</time>
      </trkpt>
      <trkpt lat="50.52232" lon="5.22595">
        <ele>71</ele>
        <time>2018-11-07T11:48:53Z</time>
      </trkpt>
      <trkpt lat="50.52173" lon="5.22573">
        <ele>71</ele>
        <time>2018-11-07T11:49:53Z</time>
      </trkpt>
      <trkpt lat="50.52123" lon="5.22555">
        <ele>72</ele>
        <time>2018-11-07T11:50:53Z</time>
      </trkpt>
      <trkpt lat="50.5209" lon="5.22552">
        <ele>74</ele>
        <time>2018-11-07T11:51:53Z</time>
      </trkpt>
      <trkpt lat="50.52034" lon="5.22548">
        <ele>72</ele>
        <time>2018-11-07T11:52:53Z</time>
      </trkpt>
      <trkpt lat="50.51977" lon="5.22551">
        <ele>71</ele>
        <time>2018-11-07T11:53:53Z</time>
      </trkpt>
      <trkpt lat="50.51927" lon="5.22552">
        <ele>69</ele>
        <time>2018-11-07T11:54:53Z</time>
      </trkpt>
      <trkpt lat="50.51917" lon="5.22569">
        <ele>69</ele>
        <time>2018-11-07T11:55:53Z</time>
      </trkpt>
      <trkpt lat="50.51914" lon="5.22593">
        <ele>68</ele>
        <time>2018-11-07T11:56:53Z</time>
      </trkpt>
      <trkpt lat="50.5192" lon="5.22672">
        <ele>72</ele>
        <time>2018-11-07T11:57:53Z</time>
      </trkpt>
      <trkpt lat="50.51904" lon="5.22771">
        <ele>76</ele>
        <time>2018-11-07T11:58:53Z</time>
      </trkpt>
      <trkpt lat="50.51901" lon="5.22844">
        <ele>76</ele>
        <time>2018-11-07T11:59:53Z</time>
      </trkpt>
      <trkpt lat="50.51908" lon="5.22952">
        <ele>76</ele>
        <time>2018-11-07T12:00:53Z</time>
      </trkpt>
      <trkpt lat="50.51915" lon="5.22998">
        <ele>76</ele>
        <time>2018-11-07T12:01:53Z</time>
      </trkpt>
      <trkpt lat="50.51938" lon="5.23098">
        <ele>77</ele>
        <time>2018-11-07T12:02:53Z</time>
      </trkpt>
      <trkpt lat="50.51954" lon="5.23154">
        <ele>77</ele>
        <time>2018-11-07T12:03:53Z</time>
      </trkpt>
      <trkpt lat="50.51969" lon="5.23206">
        <ele>78</ele>
        <time>2018-11-07T12:04:53Z</time>
      </trkpt>
      <trkpt lat="50.51986" lon="5.23239">
        <ele>78</ele>
        <time>2018-11-07T12:05:53Z</time>
      </trkpt>
      <trkpt lat="50.51996" lon="5.23244">
        <ele>78</ele>
        <time>2018-11-07T12:06:53Z</time>
      </trkpt>
      <trkpt lat="50.52026" lon="5.23277">
        <ele>79</ele>
        <time>2018-11-07T12:07:53Z</time>
      </trkpt>
      <trkpt lat="50.52086" lon="5.23352">
        <ele>81</ele>
        <time>2018-11-07T12:08:53Z</time>
      </trkpt>
      <trkpt lat="50.52129" lon="5.23401">
        <ele>81</ele>
        <time>2018-11-07T12:09:53Z</time>
      </trkpt>
      <trkpt lat="50.52154" lon="5.23433">
        <ele>80</ele>
        <time>2018-11-07T12:10:53Z</time>
      </trkpt>
      <trkpt lat="50.52139" lon="5.23448">
        <ele>79</ele>
        <time>2018-11-07T12:11:53Z</time>
      </trkpt>
      <trkpt lat="50.52156" lon="5.23475">
        <ele>79</ele>
        <time>2018-11-07T12:12:53Z</time>
      </trkpt>
      <trkpt lat="50.52177" lon="5.23507">
        <ele>79</ele>
        <time>2018-11-07T12:13:53Z</time>
      </trkpt>
      <trkpt lat="50.52213" lon="5.2354">
        <ele>78</ele>
        <time>2018-11-07T12:14:53Z</time>
      </trkpt>
      <trkpt lat="50.52254" lon="5.2357">
        <ele>76</ele>
        <time>2018-11-07T12:15:53Z</time>
      </trkpt>
      <trkpt lat="50.52286" lon="5.23595">
        <ele>73</ele>
        <time>2018-11-07T12:16:53Z</time>
      </trkpt>
      <trkpt lat="50.52324" lon="5.23639">
        <ele>72</ele>
        <time>2018-11-07T12:17:53Z</time>
      </trkpt>
      <trkpt lat="50.52338" lon="5.23648">
        <ele>72</ele>
        <time>2018-11-07T12:18:53Z</time>
      </trkpt>
      <trkpt lat="50.52345" lon="5.23668">
        <ele>72</ele>
        <time>2018-11-07T12:19:53Z</time>
      </trkpt>
      <trkpt lat="50.52356" lon="5.23679">
        <ele>72</ele>
        <time>2018-11-07T12:20:53Z</time>
      </trkpt>
      <trkpt lat="50.52369" lon="5.23676">
        <ele>72</ele>
        <time>2018-11-07T12:21:53Z</time>
      </trkpt>
      <trkpt lat="50.52447" lon="5.23731">
        <ele>73</ele>
        <time>2018-11-07T12:22:53Z</time>
      </trkpt>
      <trkpt lat="50.52509" lon="5.23777">
        <ele>72</ele>
        <time>2018-11-07T12:23:53Z</time>
      </trkpt>
      <trkpt lat="50.52562" lon="5.23816">
        <ele>72</ele>
        <time>2018-11-07T12:24:53Z</time>
      </trkpt>
      <trkpt lat="50.52662" lon="5.23886">
        <ele>71</ele>
        <time>2018-11-07T12:25:53Z</time>
      </trkpt>
      <trkpt lat="50.5268" lon="5.239">
        <ele>72</ele>
        <time>2018-11-07T12:26:53Z</time>
      </trkpt>
      <trkpt lat="50.52761" lon="5.23928">
        <ele>71</ele>
        <time>2018-11-07T12:27:53Z</time>
      </trkpt>
      <trkpt lat="50.52854" lon="5.23965">
        <ele>71</ele>
        <time>2018-11-07T12:28:53Z</time>
      </trkpt>
      <trkpt lat="50.52945" lon="5.24002">
        <ele>71</ele>
        <time>2018-11-07T12:29:53Z</time>
      </trkpt>
      <trkpt lat="50.53031" lon="5.24026">
        <ele>77</ele>
        <time>2018-11-07T12:30:53Z</time>
      </trkpt>
      <trkpt lat="50.53044" lon="5.24038">
        <ele>78</ele>
        <time>2018-11-07T12:31:53Z</time>
      </trkpt>
      <trkpt lat="50.53138" lon="5.24166">
        <ele>83</ele>
        <time>2018-11-07T12:32:53Z</time>
      </trkpt>
      <trkpt lat="50.53157" lon="5.24197">
        <ele>81</ele>
        <time>2018-11-07T12:33:53Z</time>
      </trkpt>
      <trkpt lat="50.5316" lon="5.24222">
        <ele>77</ele>
        <time>2018-11-07T12:34:53Z</time>
      </trkpt>
      <trkpt lat="50.53158" lon="5.24246">
        <ele>73</ele>
        <time>2018-11-07T12:35:53Z</time>
      </trkpt>
      <trkpt lat="50.53152" lon="5.24259">
        <ele>72</ele>
        <time>2018-11-07T12:36:53Z</time>
      </trkpt>
      <trkpt lat="50.53154" lon="5.24269">
        <ele>72</ele>
        <time>2018-11-07T12:37:53Z</time>
      </trkpt>
      <trkpt lat="50.53163" lon="5.24271">
        <ele>73</ele>
        <time>2018-11-07T12:38:53Z</time>
      </trkpt>
      <trkpt lat="50.53211" lon="5.24334">
        <ele>76</ele>
        <time>2018-11-07T12:39:53Z</time>
      </trkpt>
      <trkpt lat="50.53252" lon="5.24391">
        <ele>75</ele>
        <time>2018-11-07T12:40:53Z</time>
      </trkpt>
      <trkpt lat="50.5329" lon="5.24453">
        <ele>79</ele>
        <time>2018-11-07T12:41:53Z</time>
      </trkpt>
      <trkpt lat="50.53329" lon="5.24526">
        <ele>77</ele>
        <time>2018-11-07T12:42:53Z</time>
      </trkpt>
      <trkpt lat="50.53364" lon="5.24607">
        <ele>83</ele>
        <time>2018-11-07T12:43:53Z</time>
      </trkpt>
      <trkpt lat="50.53395" lon="5.24685">
        <ele>86</ele>
        <time>2018-11-07T12:44:53Z</time>
      </trkpt>
      <trkpt lat="50.53426" lon="5.24768">
        <ele>83</ele>
        <time>2018-11-07T12:45:53Z</time>
      </trkpt>
      <trkpt lat="50.53454" lon="5.24846">
        <ele>79</ele>
        <time>2018-11-07T12:46:53Z</time>
      </trkpt>
      <trkpt lat="50.53476" lon="5.24921">
        <ele>77</ele>
        <time>2018-11-07T12:47:53Z</time>
      </trkpt>
      <trkpt lat="50.53505" lon="5.25021">
        <ele>80</ele>
        <time>2018-11-07T12:48:53Z</time>
      </trkpt>
      <trkpt lat="50.53529" lon="5.25104">
        <ele>83</ele>
        <time>2018-11-07T12:49:53Z</time>
      </trkpt>
      <trkpt lat="50.53554" lon="5.25195">
        <ele>78</ele>
        <time>2018-11-07T12:50:53Z</time>
      </trkpt>
      <trkpt lat="50.53591" lon="5.25326">
        <ele>77</ele>
        <time>2018-11-07T12:51:53Z</time>
      </trkpt>
      <trkpt lat="50.5364" lon="5.25498">
        <ele>76</ele>
        <time>2018-11-07T12:52:53Z</time>
      </trkpt>
      <trkpt lat="50.53662" lon="5.25583">
        <ele>70</ele>
        <time>2018-11-07T12:53:53Z</time>
      </trkpt>
      <trkpt lat="50.53678" lon="5.25646">
        <ele>72</ele>
        <time>2018-11-07T12:54:53Z</time>
      </trkpt>
      <trkpt lat="50.53722" lon="5.25861">
        <ele>70</ele>
        <time>2018-11-07T12:55:53Z</time>
      </trkpt>
      <trkpt lat="50.53749" lon="5.25999">
        <ele>71</ele>
        <time>2018-11-07T12:56:53Z</time>
      </trkpt>
      <trkpt lat="50.53766" lon="5.26093">
        <ele>75</ele>
        <time>2018-11-07T12:57:53Z</time>
      </trkpt>
      <trkpt lat="50.53775" lon="5.26181">
        <ele>76</ele>
        <time>2018-11-07T12:58:53Z</time>
      </trkpt>
      <trkpt lat="50.53776" lon="5.26236">
        <ele>77</ele>
        <time>2018-11-07T12:59:53Z</time>
      </trkpt>
      <trkpt lat="50.53776" lon="5.26287">
        <ele>79</ele>
        <time>2018-11-07T13:00:53Z</time>
      </trkpt>
      <trkpt lat="50.53762" lon="5.26387">
        <ele>80</ele>
        <time>2018-11-07T13:01:53Z</time>
      </trkpt>
      <trkpt lat="50.53749" lon="5.26481">
        <ele>79</ele>
        <time>2018-11-07T13:02:53Z</time>
      </trkpt>
      <trkpt lat="50.53747" lon="5.26557">
        <ele>75</ele>
        <time>2018-11-07T13:03:53Z</time>
      </trkpt>
      <trkpt lat="50.5375" lon="5.26669">
        <ele>72</ele>
        <time>2018-11-07T13:04:53Z</time>
      </trkpt>
      <trkpt lat="50.53758" lon="5.267">
        <ele>74</ele>
        <time>2018-11-07T13:05:53Z</time>
      </trkpt>
      <trkpt lat="50.53765" lon="5.26731">
        <ele>76</ele>
        <time>2018-11-07T13:06:53Z</time>
      </trkpt>
      <trkpt lat="50.53778" lon="5.26776">
        <ele>78</ele>
        <time>2018-11-07T13:07:53Z</time>
      </trkpt>
      <trkpt lat="50.53788" lon="5.26804">
        <ele>80</ele>
        <time>2018-11-07T13:08:53Z</time>
      </trkpt>
      <trkpt lat="50.53793" lon="5.26831">
        <ele>79</ele>
        <time>2018-11-07T13:09:53Z</time>
      </trkpt>
      <trkpt lat="50.53797" lon="5.26862">
        <ele>81</ele>
        <time>2018-11-07T13:10:53Z</time>
      </trkpt>
      <trkpt lat="50.53798" lon="5.26907">
        <ele>82</ele>
        <time>2018-11-07T13:11:53Z</time>
      </trkpt>
      <trkpt lat="50.53797" lon="5.26955">
        <ele>81</ele>
        <time>2018-11-07T13:12:53Z</time>
      </trkpt>
      <trkpt lat="50.53795" lon="5.27046">
        <ele>80</ele>
        <time>2018-11-07T13:13:53Z</time>
      </trkpt>
      <trkpt lat="50.53804" lon="5.27107">
        <ele>82</ele>
        <time>2018-11-07T13:14:53Z</time>
      </trkpt>
      <trkpt lat="50.53819" lon="5.27173">
        <ele>85</ele>
        <time>2018-11-07T13:15:53Z</time>
      </trkpt>
      <trkpt lat="50.53831" lon="5.27241">
        <ele>80</ele>
        <time>2018-11-07T13:16:53Z</time>
      </trkpt>
      <trkpt lat="50.53834" lon="5.27333">
        <ele>78</ele>
        <time>2018-11-07T13:17:53Z</time>
      </trkpt>
      <trkpt lat="50.53821" lon="5.27532">
        <ele>75</ele>
        <time>2018-11-07T13:18:53Z</time>
      </trkpt>
      <trkpt lat="50.5382" lon="5.27589">
        <ele>74</ele>
        <time>2018-11-07T13:19:53Z</time>
      </trkpt>
      <trkpt lat="50.53822" lon="5.27635">
        <ele>73</ele>
        <time>2018-11-07T13:20:53Z</time>
      </trkpt>
      <trkpt lat="50.53823" lon="5.2767">
        <ele>73</ele>
        <time>2018-11-07T13:21:53Z</time>
      </trkpt>
      <trkpt lat="50.53831" lon="5.27726">
        <ele>72</ele>
        <time>2018-11-07T13:22:53Z</time>
      </trkpt>
      <trkpt lat="50.53839" lon="5.2778">
        <ele>71</ele>
        <time>2018-11-07T13:23:53Z</time>
      </trkpt>
      <trkpt lat="50.53861" lon="5.27963">
        <ele>69</ele>
        <time>2018-11-07T13:24:53Z</time>
      </trkpt>
      <trkpt lat="50.53886" lon="5.28148">
        <ele>71</ele>
        <time>2018-11-07T13:25:53Z</time>
      </trkpt>
      <trkpt lat="50.53928" lon="5.28484">
        <ele>70</ele>
        <time>2018-11-07T13:26:53Z</time>
      </trkpt>
      <trkpt lat="50.53965" lon="5.28797">
        <ele>70</ele>
        <time>2018-11-07T13:27:53Z</time>
      </trkpt>
      <trkpt lat="50.5401" lon="5.29132">
        <ele>72</ele>
        <time>2018-11-07T13:28:53Z</time>
      </trkpt>
      <trkpt lat="50.54027" lon="5.29272">
        <ele>70</ele>
        <time>2018-11-07T13:29:53Z</time>
      </trkpt>
      <trkpt lat="50.54039" lon="5.29356">
        <ele>70</ele>
        <time>2018-11-07T13:30:53Z</time>
      </trkpt>
      <trkpt lat="50.54058" lon="5.29497">
        <ele>70</ele>
        <time>2018-11-07T13:31:53Z</time>
      </trkpt>
      <trkpt lat="50.54081" lon="5.29676">
        <ele>70</ele>
        <time>2018-11-07T13:32:53Z</time>
      </trkpt>
      <trkpt lat="50.54104" lon="5.29857">
        <ele>69</ele>
        <time>2018-11-07T13:33:53Z</time>
      </trkpt>
      <trkpt lat="50.54126" lon="5.30033">
        <ele>70</ele>
        <time>2018-11-07T13:34:53Z</time>
      </trkpt>
      <trkpt lat="50.54139" lon="5.3013">
        <ele>69</ele>
        <time>2018-11-07T13:35:53Z</time>
      </trkpt>
      <trkpt lat="50.54144" lon="5.30166">
        <ele>68</ele>
        <time>2018-11-07T13:36:53Z</time>
      </trkpt>
      <trkpt lat="50.54156" lon="5.30256">
        <ele>68</ele>
        <time>2018-11-07T13:37:53Z</time>
      </trkpt>
      <trkpt lat="50.54171" lon="5.30349">
        <ele>68</ele>
        <time>2018-11-07T13:38:53Z</time>
      </trkpt>
      <trkpt lat="50.54193" lon="5.3044">
        <ele>68</ele>
        <time>2018-11-07T13:39:53Z</time>
      </trkpt>
      <trkpt lat="50.54219" lon="5.30515">
        <ele>68</ele>
        <time>2018-11-07T13:40:53Z</time>
      </trkpt>
      <trkpt lat="50.54252" lon="5.30597">
        <ele>69</ele>
        <time>2018-11-07T13:41:53Z</time>
      </trkpt>
      <trkpt lat="50.54301" lon="5.30708">
        <ele>69</ele>
        <time>2018-11-07T13:42:53Z</time>
      </trkpt>
      <trkpt lat="50.54374" lon="5.30877">
        <ele>70</ele>
        <time>2018-11-07T13:43:53Z</time>
      </trkpt>
      <trkpt lat="50.54459" lon="5.31069">
        <ele>72</ele>
        <time>2018-11-07T13:44:53Z</time>
      </trkpt>
      <trkpt lat="50.54513" lon="5.31189">
        <ele>72</ele>
        <time>2018-11-07T13:45:53Z</time>
      </trkpt>
      <trkpt lat="50.54615" lon="5.31421">
        <ele>72</ele>
        <time>2018-11-07T13:46:53Z</time>
      </trkpt>
      <trkpt lat="50.5464" lon="5.31481">
        <ele>72</ele>
        <time>2018-11-07T13:47:53Z</time>
      </trkpt>
      <trkpt lat="50.54676" lon="5.3156">
        <ele>72</ele>
        <time>2018-11-07T13:48:53Z</time>
      </trkpt>
      <trkpt lat="50.54707" lon="5.31631">
        <ele>73</ele>
        <time>2018-11-07T13:49:53Z</time>
      </trkpt>
      <trkpt lat="50.54735" lon="5.3169">
        <ele>73</ele>
        <time>2018-11-07T13:50:53Z</time>
      </trkpt>
      <trkpt lat="50.54742" lon="5.31711">
        <ele>73</ele>
        <time>2018-11-07T13:51:53Z</time>
      </trkpt>
      <trkpt lat="50.54753" lon="5.31735">
        <ele>73</ele>
        <time>2018-11-07T13:52:53Z</time>
      </trkpt>
      <trkpt lat="50.54783" lon="5.318">
        <ele>74</ele>
        <time>2018-11-07T13:53:53Z</time>
      </trkpt>
      <trkpt lat="50.54827" lon="5.31888">
        <ele>75</ele>
        <time>2018-11-07T13:54:53Z</time>
      </trkpt>
      <trkpt lat="50.54828" lon="5.31909">
        <ele>75</ele>
        <time>2018-11-07T13:55:53Z</time>
      </trkpt>
      <trkpt lat="50.54834" lon="5.31921">
        <ele>75</ele>
        <time>2018-11-07T13:56:53Z</time>
      </trkpt>
      <trkpt lat="50.54846" lon="5.31923">
        <ele>75</ele>
        <time>2018-11-07T13:57:53Z</time>
      </trkpt>
      <trkpt lat="50.54871" lon="5.31968">
        <ele>74</ele>
        <time>2018-11-07T13:58:53Z</time>
      </trkpt>
      <trkpt lat="50.54905" lon="5.32029">
        <ele>72</ele>
        <time>2018-11-07T13:59:53Z</time>
      </trkpt>
      <trkpt lat="50.54949" lon="5.32106">
        <ele>72</ele>
        <time>2018-11-07T14:00:53Z</time>
      </trkpt>
      <trkpt lat="50.54986" lon="5.32172">
        <ele>71</ele>
        <time>2018-11-07T14:01:53Z</time>
      </trkpt>
      <trkpt lat="50.55044" lon="5.32274">
        <ele>71</ele>
        <time>2018-11-07T14:02:53Z</time>
      </trkpt>
      <trkpt lat="50.55104" lon="5.32377">
        <ele>73</ele>
        <time>2018-11-07T14:03:53Z</time>
      </trkpt>
      <trkpt lat="50.55172" lon="5.32496">
        <ele>72</ele>
        <time>2018-11-07T14:04:53Z</time>
      </trkpt>
      <trkpt lat="50.55248" lon="5.32627">
        <ele>75</ele>
        <time>2018-11-07T14:05:53Z</time>
      </trkpt>
      <trkpt lat="50.55279" lon="5.32685">
        <ele>79</ele>
        <time>2018-11-07T14:06:53Z</time>
      </trkpt>
      <trkpt lat="50.55294" lon="5.32726">
        <ele>81</ele>
        <time>2018-11-07T14:07:53Z</time>
      </trkpt>
      <trkpt lat="50.55352" lon="5.3288">
        <ele>81</ele>
        <time>2018-11-07T14:08:53Z</time>
      </trkpt>
      <trkpt lat="50.55385" lon="5.32949">
        <ele>81</ele>
        <time>2018-11-07T14:09:53Z</time>
      </trkpt>
      <trkpt lat="50.55415" lon="5.33004">
        <ele>76</ele>
        <time>2018-11-07T14:10:53Z</time>
      </trkpt>
      <trkpt lat="50.55488" lon="5.33136">
        <ele>81</ele>
        <time>2018-11-07T14:11:53Z</time>
      </trkpt>
      <trkpt lat="50.55512" lon="5.33179">
        <ele>79</ele>
        <time>2018-11-07T14:12:53Z</time>
      </trkpt>
      <trkpt lat="50.55542" lon="5.33227">
        <ele>81</ele>
        <time>2018-11-07T14:13:53Z</time>
      </trkpt>
      <trkpt lat="50.55563" lon="5.33246">
        <ele>81</ele>
        <time>2018-11-07T14:14:53Z</time>
      </trkpt>
      <trkpt lat="50.55607" lon="5.333">
        <ele>84</ele>
        <time>2018-11-07T14:15:53Z</time>
      </trkpt>
      <trkpt lat="50.55632" lon="5.3334">
        <ele>86</ele>
        <time>2018-11-07T14:16:53Z</time>
      </trkpt>
      <trkpt lat="50.55678" lon="5.33437">
        <ele>78</ele>
        <time>2018-11-07T14:17:53Z</time>
      </trkpt>
      <trkpt lat="50.55714" lon="5.33517">
        <ele>72</ele>
        <time>2018-11-07T14:18:53Z</time>
      </trkpt>
      <trkpt lat="50.55827" lon="5.33742">
        <ele>69</ele>
        <time>2018-11-07T14:19:53Z</time>
      </trkpt>
      <trkpt lat="50.55856" lon="5.33804">
        <ele>74</ele>
        <time>2018-11-07T14:20:53Z</time>
      </trkpt>
      <trkpt lat="50.55889" lon="5.33874">
        <ele>74</ele>
        <time>2018-11-07T14:21:53Z</time>
      </trkpt>
      <trkpt lat="50.55925" lon="5.33942">
        <ele>72</ele>
        <time>2018-11-07T14:22:53Z</time>
      </trkpt>
      <trkpt lat="50.55956" lon="5.33968">
        <ele>78</ele>
        <time>2018-11-07T14:23:53Z</time>
      </trkpt>
      <trkpt lat="50.55978" lon="5.33988">
        <ele>81</ele>
        <time>2018-11-07T14:24:53Z</time>
      </trkpt>
      <trkpt lat="50.55994" lon="5.34013">
        <ele>82</ele>
        <time>2018-11-07T14:25:53Z</time>
      </trkpt>
      <trkpt lat="50.5601" lon="5.34047">
        <ele>84</ele>
        <time>2018-11-07T14:26:53Z</time>
      </trkpt>
      <trkpt lat="50.56048" lon="5.34156">
        <ele>85</ele>
        <time>2018-11-07T14:27:53Z</time>
      </trkpt>
      <trkpt lat="50.56077" lon="5.34237">
        <ele>79</ele>
        <time>2018-11-07T14:28:53Z</time>
      </trkpt>
      <trkpt lat="50.56132" lon="5.34388">
        <ele>77</ele>
        <time>2018-11-07T14:29:53Z</time>
      </trkpt>
      <trkpt lat="50.56193" lon="5.34556">
        <ele>76</ele>
        <time>2018-11-07T14:30:53Z</time>
      </trkpt>
      <trkpt lat="50.56254" lon="5.3472">
        <ele>75</ele>
        <time>2018-11-07T14:31:53Z</time>
      </trkpt>
      <trkpt lat="50.563" lon="5.34853">
        <ele>72</ele>
        <time>2018-11-07T14:32:53Z</time>
      </trkpt>
      <trkpt lat="50.56357" lon="5.35014">
        <ele>73</ele>
        <time>2018-11-07T14:33:53Z</time>
      </trkpt>
      <trkpt lat="50.56389" lon="5.35121">
        <ele>70</ele>
        <time>2018-11-07T14:34:53Z</time>
      </trkpt>
      <trkpt lat="50.5642" lon="5.35226">
        <ele>68</ele>
        <time>2018-11-07T14:35:53Z</time>
      </trkpt>
      <trkpt lat="50.56486" lon="5.35455">
        <ele>68</ele>
        <time>2018-11-07T14:36:53Z</time>
      </trkpt>
      <trkpt lat="50.56537" lon="5.35631">
        <ele>73</ele>
        <time>2018-11-07T14:37:53Z</time>
      </trkpt>
      <trkpt lat="50.56561" lon="5.35707">
        <ele>77</ele>
        <time>2018-11-07T14:38:53Z</time>
      </trkpt>
      <trkpt lat="50.56627" lon="5.3594">
        <ele>73</ele>
        <time>2018-11-07T14:39:53Z</time>
      </trkpt>
      <trkpt lat="50.5665" lon="5.36029">
        <ele>74</ele>
        <time>2018-11-07T14:40:53Z</time>
      </trkpt>
      <trkpt lat="50.56676" lon="5.36117">
        <ele>74</ele>
        <time>2018-11-07T14:41:53Z</time>
      </trkpt>
      <trkpt lat="50.56682" lon="5.36143">
        <ele>76</ele>
        <time>2018-11-07T14:42:53Z</time>
      </trkpt>
      <trkpt lat="50.56698" lon="5.36223">
        <ele>79</ele>
        <time>2018-11-07T14:43:53Z</time>
      </trkpt>
      <trkpt lat="50.56713" lon="5.36305">
        <ele>81</ele>
        <time>2018-11-07T14:44:53Z</time>
      </trkpt>
      <trkpt lat="50.56734" lon="5.36416">
        <ele>78</ele>
        <time>2018-11-07T14:45:53Z</time>
      </trkpt>
      <trkpt lat="50.56751" lon="5.36508">
        <ele>74</ele>
        <time>2018-11-07T14:46:53Z</time>
      </trkpt>
      <trkpt lat="50.56787" lon="5.36644">
        <ele>78</ele>
        <time>2018-11-07T14:47:53Z</time>
      </trkpt>
      <trkpt lat="50.56809" lon="5.36721">
        <ele>79</ele>
        <time>2018-11-07T14:48:53Z</time>
      </trkpt>
      <trkpt lat="50.56831" lon="5.36808">
        <ele>80</ele>
        <time>2018-11-07T14:49:53Z</time>
      </trkpt>
      <trkpt lat="50.56853" lon="5.36894">
        <ele>81</ele>
        <time>2018-11-07T14:50:53Z</time>
      </trkpt>
      <trkpt lat="50.56897" lon="5.3708">
        <ele>79</ele>
        <time>2018-11-07T14:51:53Z</time>
      </trkpt>
      <trkpt lat="50.56908" lon="5.37132">
        <ele>76</ele>
        <time>2018-11-07T14:52:53Z</time>
      </trkpt>
      <trkpt lat="50.5692" lon="5.37168">
        <ele>75</ele>
        <time>2018-11-07T14:53:53Z</time>
      </trkpt>
      <trkpt lat="50.56946" lon="5.37248">
        <ele>77</ele>
        <time>2018-11-07T14:54:53Z</time>
      </trkpt>
      <trkpt lat="50.56962" lon="5.37291">
        <ele>79</ele>
        <time>2018-11-07T14:55:53Z</time>
      </trkpt>
      <trkpt lat="50.56987" lon="5.37368">
        <ele>79</ele>
        <time>2018-11-07T14:56:53Z</time>
      </trkpt>
      <trkpt lat="50.57004" lon="5.37419">
        <ele>79</ele>
        <time>2018-11-07T14:57:53Z</time>
      </trkpt>
      <trkpt lat="50.57013" lon="5.37445">
        <ele>80</ele>
        <time>2018-11-07T14:58:53Z</time>
      </trkpt>
      <trkpt lat="50.57041" lon="5.37528">
        <ele>82</ele>
        <time>2018-11-07T14:59:53Z</time>
      </trkpt>
      <trkpt lat="50.57093" lon="5.37684">
        <ele>78</ele>
        <time>2018-11-07T15:00:53Z</time>
      </trkpt>
      <trkpt lat="50.57121" lon="5.37762">
        <ele>80</ele>
        <time>2018-11-07T15:01:53Z</time>
      </trkpt>
      <trkpt lat="50.57136" lon="5.37803">
        <ele>78</ele>
        <time>2018-11-07T15:02:53Z</time>
      </trkpt>
      <trkpt lat="50.57153" lon="5.3784">
        <ele>76</ele>
        <time>2018-11-07T15:03:53Z</time>
      </trkpt>
      <trkpt lat="50.57188" lon="5.37909">
        <ele>75</ele>
        <time>2018-11-07T15:04:53Z</time>
      </trkpt>
      <trkpt lat="50.57222" lon="5.37978">
        <ele>76</ele>
        <time>2018-11-07T15:05:53Z</time>
      </trkpt>
      <trkpt lat="50.57239" lon="5.38016">
        <ele>75</ele>
        <time>2018-11-07T15:06:53Z</time>
      </trkpt>
      <trkpt lat="50.57268" lon="5.38094">
        <ele>78</ele>
        <time>2018-11-07T15:07:53Z</time>
      </trkpt>
      <trkpt lat="50.57299" lon="5.38177">
        <ele>83</ele>
        <time>2018-11-07T15:08:53Z</time>
      </trkpt>
      <trkpt lat="50.57334" lon="5.3825">
        <ele>81</ele>
        <time>2018-11-07T15:09:53Z</time>
      </trkpt>
      <trkpt lat="50.57376" lon="5.38332">
        <ele>82</ele>
        <time>2018-11-07T15:10:53Z</time>
      </trkpt>
      <trkpt lat="50.57413" lon="5.38395">
        <ele>82</ele>
        <time>2018-11-07T15:11:53Z</time>
      </trkpt>
      <trkpt lat="50.57521" lon="5.38574">
        <ele>85</ele>
        <time>2018-11-07T15:12:53Z</time>
      </trkpt>
      <trkpt lat="50.57556" lon="5.38633">
        <ele>84</ele>
        <time>2018-11-07T15:13:53Z</time>
      </trkpt>
      <trkpt lat="50.57592" lon="5.38696">
        <ele>83</ele>
        <time>2018-11-07T15:14:53Z</time>
      </trkpt>
      <trkpt lat="50.57627" lon="5.38766">
        <ele>82</ele>
        <time>2018-11-07T15:15:53Z</time>
      </trkpt>
      <trkpt lat="50.57666" lon="5.38843">
        <ele>78</ele>
        <time>2018-11-07T15:16:53Z</time>
      </trkpt>
      <trkpt lat="50.57707" lon="5.38917">
        <ele>80</ele>
        <time>2018-11-07T15:17:53Z</time>
      </trkpt>
      <trkpt lat="50.5775" lon="5.38989">
        <ele>79</ele>
        <time>2018-11-07T15:18:53Z</time>
      </trkpt>
      <trkpt lat="50.57792" lon="5.39061">
        <ele>83</ele>
        <time>2018-11-07T15:19:53Z</time>
      </trkpt>
      <trkpt lat="50.57833" lon="5.39132">
        <ele>82</ele>
        <time>2018-11-07T15:20:53Z</time>
      </trkpt>
      <trkpt lat="50.57861" lon="5.3918">
        <ele>84</ele>
        <time>2018-11-07T15:21:53Z</time>
      </trkpt>
      <trkpt lat="50.57868" lon="5.39217">
        <ele>82</ele>
        <time>2018-11-07T15:22:53Z</time>
      </trkpt>
      <trkpt lat="50.5787" lon="5.39253">
        <ele>79</ele>
        <time>2018-11-07T15:23:53Z</time>
      </trkpt>
      <trkpt lat="50.57869" lon="5.39296">
        <ele>76</ele>
        <time>2018-11-07T15:24:53Z</time>
      </trkpt>
      <trkpt lat="50.57871" lon="5.39344">
        <ele>73</ele>
        <time>2018-11-07T15:25:53Z</time>
      </trkpt>
      <trkpt lat="50.57878" lon="5.39377">
        <ele>72</ele>
        <time>2018-11-07T15:26:53Z</time>
      </trkpt>
      <trkpt lat="50.57889" lon="5.39404">
        <ele>71</ele>
        <time>2018-11-07T15:27:53Z</time>
      </trkpt>
      <trkpt lat="50.57927" lon="5.39492">
        <ele>71</ele>
        <time>2018-11-07T15:28:53Z</time>
      </trkpt>
      <trkpt lat="50.57938" lon="5.3952">
        <ele>71</ele>
        <time>2018-11-07T15:29:53Z</time>
      </trkpt>
      <trkpt lat="50.57949" lon="5.39549">
        <ele>71</ele>
        <time>2018-11-07T15:30:53Z</time>
      </trkpt>
      <trkpt lat="50.57952" lon="5.39569">
        <ele>71</ele>
        <time>2018-11-07T15:31:53Z</time>
      </trkpt>
      <trkpt lat="50.57952" lon="5.39618">
        <ele>69</ele>
        <time>2018-11-07T15:32:53Z</time>
      </trkpt>
      <trkpt lat="50.57943" lon="5.39659">
        <ele>68</ele>
        <time>2018-11-07T15:33:53Z</time>
      </trkpt>
      <trkpt lat="50.57933" lon="5.39683">
        <ele>67</ele>
        <time>2018-11-07T15:34:53Z</time>
      </trkpt>
      <trkpt lat="50.57919" lon="5.39706">
        <ele>66</ele>
        <time>2018-11-07T15:35:53Z</time>
      </trkpt>
      <trkpt lat="50.57897" lon="5.39741">
        <ele>66</ele>
        <time>2018-11-07T15:36:53Z</time>
      </trkpt>
      <trkpt lat="50.57877" lon="5.39745">
        <ele>65</ele>
        <time>2018-11-07T15:37:53Z</time>
      </trkpt>
      <trkpt lat="50.57867" lon="5.3976">
        <ele>66</ele>
        <time>2018-11-07T15:38:53Z</time>
      </trkpt>
      <trkpt lat="50.57874" lon="5.39781">
        <ele>66</ele>
        <time>2018-11-07T15:39:53Z</time>
      </trkpt>
      <trkpt lat="50.57889" lon="5.39794">
        <ele>66</ele>
        <time>2018-11-07T15:40:53Z</time>
      </trkpt>
      <trkpt lat="50.57901" lon="5.39833">
        <ele>67</ele>
        <time>2018-11-07T15:41:53Z</time>
      </trkpt>
      <trkpt lat="50.57931" lon="5.39929">
        <ele>66</ele>
        <time>2018-11-07T15:42:53Z</time>
      </trkpt>
      <trkpt lat="50.57959" lon="5.40007">
        <ele>66</ele>
        <time>2018-11-07T15:43:53Z</time>
      </trkpt>
      <trkpt lat="50.58014" lon="5.40164">
        <ele>66</ele>
        <time>2018-11-07T15:44:53Z</time>
      </trkpt>
      <trkpt lat="50.5804" lon="5.40239">
        <ele>66</ele>
        <time>2018-11-07T15:45:53Z</time>
      </trkpt>
      <trkpt lat="50.58099" lon="5.40394">
        <ele>66</ele>
        <time>2018-11-07T15:46:53Z</time>
      </trkpt>
      <trkpt lat="50.58166" lon="5.40569">
        <ele>66</ele>
        <time>2018-11-07T15:47:53Z</time>
      </trkpt>
      <trkpt lat="50.58198" lon="5.40652">
        <ele>66</ele>
        <time>2018-11-07T15:48:53Z</time>
      </trkpt>
      <trkpt lat="50.5823" lon="5.40735">
        <ele>67</ele>
        <time>2018-11-07T15:49:53Z</time>
      </trkpt>
      <trkpt lat="50.58247" lon="5.40782">
        <ele>67</ele>
        <time>2018-11-07T15:50:53Z</time>
      </trkpt>
      <trkpt lat="50.58263" lon="5.40829">
        <ele>67</ele>
        <time>2018-11-07T15:51:53Z</time>
      </trkpt>
      <trkpt lat="50.58319" lon="5.40971">
        <ele>67</ele>
        <time>2018-11-07T15:52:53Z</time>
      </trkpt>
      <trkpt lat="50.58332" lon="5.41003">
        <ele>67</ele>
        <time>2018-11-07T15:53:53Z</time>
      </trkpt>
      <trkpt lat="50.58346" lon="5.41036">
        <ele>68</ele>
        <time>2018-11-07T15:54:53Z</time>
      </trkpt>
      <trkpt lat="50.5838" lon="5.41105">
        <ele>70</ele>
        <time>2018-11-07T15:55:53Z</time>
      </trkpt>
      <trkpt lat="50.58413" lon="5.41173">
        <ele>71</ele>
        <time>2018-11-07T15:56:53Z</time>
      </trkpt>
      <trkpt lat="50.58451" lon="5.41241">
        <ele>70</ele>
        <time>2018-11-07T15:57:53Z</time>
      </trkpt>
      <trkpt lat="50.58513" lon="5.41346">
        <ele>68</ele>
        <time>2018-11-07T15:58:53Z</time>
      </trkpt>
      <trkpt lat="50.58579" lon="5.41453">
        <ele>68</ele>
        <time>2018-11-07T15:59:53Z</time>
      </trkpt>
      <trkpt lat="50.58599" lon="5.41491">
        <ele>68</ele>
        <time>2018-11-07T16:00:53Z</time>
      </trkpt>
      <trkpt lat="50.5861" lon="5.41533">
        <ele>68</ele>
        <time>2018-11-07T16:01:53Z</time>
      </trkpt>
      <trkpt lat="50.58612" lon="5.41575">
        <ele>68</ele>
        <time>2018-11-07T16:02:53Z</time>
      </trkpt>
      <trkpt lat="50.58609" lon="5.41748">
        <ele>65</ele>
        <time>2018-11-07T16:03:53Z</time>
      </trkpt>
      <trkpt lat="50.58632" lon="5.41989">
        <ele>66</ele>
        <time>2018-11-07T16:04:53Z</time>
      </trkpt>
      <trkpt lat="50.5867" lon="5.42345">
        <ele>65</ele>
        <time>2018-11-07T16:05:53Z</time>
      </trkpt>
      <trkpt lat="50.58691" lon="5.42546">
        <ele>64</ele>
        <time>2018-11-07T16:06:53Z</time>
      </trkpt>
      <trkpt lat="50.58706" lon="5.42631">
        <ele>63</ele>
        <time>2018-11-07T16:07:53Z</time>
      </trkpt>
      <trkpt lat="50.58778" lon="5.42928">
        <ele>66</ele>
        <time>2018-11-07T16:08:53Z</time>
      </trkpt>
      <trkpt lat="50.58866" lon="5.43273">
        <ele>73</ele>
        <time>2018-11-07T16:09:53Z</time>
      </trkpt>
      <trkpt lat="50.58878" lon="5.43365">
        <ele>72</ele>
        <time>2018-11-07T16:10:53Z</time>
      </trkpt>
      <trkpt lat="50.58894" lon="5.43565">
        <ele>70</ele>
        <time>2018-11-07T16:11:53Z</time>
      </trkpt>
      <trkpt lat="50.58899" lon="5.43643">
        <ele>69</ele>
        <time>2018-11-07T16:12:53Z</time>
      </trkpt>
      <trkpt lat="50.58936" lon="5.43921">
        <ele>65</ele>
        <time>2018-11-07T16:13:53Z</time>
      </trkpt>
      <trkpt lat="50.58963" lon="5.44117">
        <ele>70</ele>
        <time>2018-11-07T16:14:53Z</time>
      </trkpt>
      <trkpt lat="50.58992" lon="5.44311">
        <ele>71</ele>
        <time>2018-11-07T16:15:53Z</time>
      </trkpt>
      <trkpt lat="50.59036" lon="5.44533">
        <ele>67</ele>
        <time>2018-11-07T16:16:53Z</time>
      </trkpt>
      <trkpt lat="50.59045" lon="5.44566">
        <ele>67</ele>
        <time>2018-11-07T16:17:53Z</time>
      </trkpt>
      <trkpt lat="50.59066" lon="5.44625">
        <ele>67</ele>
        <time>2018-11-07T16:18:53Z</time>
      </trkpt>
      <trkpt lat="50.59136" lon="5.44776">
        <ele>64</ele>
        <time>2018-11-07T16:19:53Z</time>
      </trkpt>
      <trkpt lat="50.59167" lon="5.44844">
        <ele>63</ele>
        <time>2018-11-07T16:20:53Z</time>
      </trkpt>
      <trkpt lat="50.59182" lon="5.44889">
        <ele>65</ele>
        <time>2018-11-07T16:21:53Z</time>
      </trkpt>
      <trkpt lat="50.59214" lon="5.45053">
        <ele>66</ele>
        <time>2018-11-07T16:22:53Z</time>
      </trkpt>
      <trkpt lat="50.5924" lon="5.4522">
        <ele>65</ele>
        <time>2018-11-07T16:23:53Z</time>
      </trkpt>
      <trkpt lat="50.59241" lon="5.45256">
        <ele>64</ele>
        <time>2018-11-07T16:24:53Z</time>
      </trkpt>
      <trkpt lat="50.59235" lon="5.45388">
        <ele>66</ele>
        <time>2018-11-07T16:25:53Z</time>
      </trkpt>
      <trkpt lat="50.59266" lon="5.45398">
        <ele>66</ele>
        <time>2018-11-07T16:26:53Z</time>
      </trkpt>
      <trkpt lat="50.59275" lon="5.45408">
        <ele>67</ele>
        <time>2018-11-07T16:27:53Z</time>
      </trkpt>
      <trkpt lat="50.59283" lon="5.45429">
        <ele>67</ele>
        <time>2018-11-07T16:28:53Z</time>
      </trkpt>
      <trkpt lat="50.59303" lon="5.45477">
        <ele>66</ele>
        <time>2018-11-07T16:29:53Z</time>
      </trkpt>
      <trkpt lat="50.59349" lon="5.45554">
        <ele>67</ele>
        <time>2018-11-07T16:30:53Z</time>
      </trkpt>
      <trkpt lat="50.59378" lon="5.45607">
        <ele>68</ele>
        <time>2018-11-07T16:31:53Z</time>
      </trkpt>
      <trkpt lat="50.59461" lon="5.4583">
        <ele>66</ele>
        <time>2018-11-07T16:32:53Z</time>
      </trkpt>
      <trkpt lat="50.5953" lon="5.46004">
        <ele>68</ele>
        <time>2018-11-07T16:33:53Z</time>
      </trkpt>
      <trkpt lat="50.59575" lon="5.46113">
        <ele>68</ele>
        <time>2018-11-07T16:34:53Z</time>
      </trkpt>
      <trkpt lat="50.59639" lon="5.46291">
        <ele>66</ele>
        <time>2018-11-07T16:35:53Z</time>
      </trkpt>
      <trkpt lat="50.59709" lon="5.4647">
        <ele>67</ele>
        <time>2018-11-07T16:36:53Z</time>
      </trkpt>
      <trkpt lat="50.59756" lon="5.46588">
        <ele>68</ele>
        <time>2018-11-07T16:37:53Z</time>
      </trkpt>
      <trkpt lat="50.59778" lon="5.4663">
        <ele>67</ele>
        <time>2018-11-07T16:38:53Z</time>
      </trkpt>
      <trkpt lat="50.59805" lon="5.46684">
        <ele>67</ele>
        <time>2018-11-07T16:39:53Z</time>
      </trkpt>
      <trkpt lat="50.5984" lon="5.46765">
        <ele>68</ele>
        <time>2018-11-07T16:40:53Z</time>
      </trkpt>
      <trkpt lat="50.59852" lon="5.46803">
        <ele>68</ele>
        <time>2018-11-07T16:41:53Z</time>
      </trkpt>
      <trkpt lat="50.59871" lon="5.46879">
        <ele>67</ele>
        <time>2018-11-07T16:42:53Z</time>
      </trkpt>
      <trkpt lat="50.59902" lon="5.4706">
        <ele>64</ele>
        <time>2018-11-07T16:43:53Z</time>
      </trkpt>
      <trkpt lat="50.59921" lon="5.47178">
        <ele>64</ele>
        <time>2018-11-07T16:44:53Z</time>
      </trkpt>
      <trkpt lat="50.59943" lon="5.47253">
        <ele>65</ele>
        <time>2018-11-07T16:45:53Z</time>
      </trkpt>
      <trkpt lat="50.59954" lon="5.47279">
        <ele>65</ele>
        <time>2018-11-07T16:46:53Z</time>
      </trkpt>
      <trkpt lat="50.60056" lon="5.4746">
        <ele>66</ele>
        <time>2018-11-07T16:47:53Z</time>
      </trkpt>
      <trkpt lat="50.60147" lon="5.47621">
        <ele>66</ele>
        <time>2018-11-07T16:48:53Z</time>
      </trkpt>
      <trkpt lat="50.6026" lon="5.47819">
        <ele>65</ele>
        <time>2018-11-07T16:49:53Z</time>
      </trkpt>
      <trkpt lat="50.60357" lon="5.47991">
        <ele>67</ele>
        <time>2018-11-07T16:50:53Z</time>
      </trkpt>
      <trkpt lat="50.60392" lon="5.48069">
        <ele>67</ele>
        <time>2018-11-07T16:51:53Z</time>
      </trkpt>
      <trkpt lat="50.60431" lon="5.48163">
        <ele>68</ele>
        <time>2018-11-07T16:52:53Z</time>
      </trkpt>
      <trkpt lat="50.60453" lon="5.48225">
        <ele>68</ele>
        <time>2018-11-07T16:53:53Z</time>
      </trkpt>
      <trkpt lat="50.60478" lon="5.4831">
        <ele>68</ele>
        <time>2018-11-07T16:54:53Z</time>
      </trkpt>
      <trkpt lat="50.60492" lon="5.48364">
        <ele>67</ele>
        <time>2018-11-07T16:55:53Z</time>
      </trkpt>
      <trkpt lat="50.60486" lon="5.48383">
        <ele>67</ele>
        <time>2018-11-07T16:56:53Z</time>
      </trkpt>
      <trkpt lat="50.60472" lon="5.48408">
        <ele>66</ele>
        <time>2018-11-07T16:57:53Z</time>
      </trkpt>
      <trkpt lat="50.60422" lon="5.48469">
        <ele>64</ele>
        <time>2018-11-07T16:58:53Z</time>
      </trkpt>
      <trkpt lat="50.60406" lon="5.48446">
        <ele>65</ele>
        <time>2018-11-07T16:59:53Z</time>
      </trkpt>
      <trkpt lat="50.60423" lon="5.48423">
        <ele>65</ele>
        <time>2018-11-07T17:00:53Z</time>
      </trkpt>
    </trkseg>
  </trk>
</gpx>